<?xml version="1.0" encoding="UTF-8" standalone="no" ?>
<gpx xmlns="http://www.topografix.com/GPX/1/1" xmlns:xsi="http://www.w3.org/2001/XMLSchema-instance" xsi:schemaLocation="http://www.topografix.com/GPX/1/1 http://www.topografix.com/GPX/1/1/gpx.xsd" version="1.1" creator="VisuGPX - https://www.visugpx.com">
  <metadata>
    <name>col du fayet - st marcel - boulieu</name>
    <desc><![CDATA[depart du col du fayet]]></desc>
  </metadata>
  <trk>
    <name><![CDATA[11 mars 07]]></name>
    <trkseg>
      <trkpt lat="45.30811" lon="4.68578">
        <ele>614</ele>
        <time>2007-03-11T08:27:36Z</time>
      </trkpt>
      <trkpt lat="45.30809" lon="4.68575">
        <ele>611</ele>
        <time>2007-03-11T08:30:38Z</time>
      </trkpt>
      <trkpt lat="45.30813" lon="4.68573">
        <ele>612</ele>
        <time>2007-03-11T08:30:45Z</time>
      </trkpt>
      <trkpt lat="45.30822" lon="4.68537">
        <ele>612</ele>
        <time>2007-03-11T08:31:01Z</time>
      </trkpt>
      <trkpt lat="45.30835" lon="4.68505">
        <ele>612</ele>
        <time>2007-03-11T08:31:13Z</time>
      </trkpt>
      <trkpt lat="45.3085" lon="4.68464">
        <ele>613</ele>
        <time>2007-03-11T08:31:26Z</time>
      </trkpt>
      <trkpt lat="45.30865" lon="4.68402">
        <ele>616</ele>
        <time>2007-03-11T08:31:42Z</time>
      </trkpt>
      <trkpt lat="45.30867" lon="4.68348">
        <ele>618</ele>
        <time>2007-03-11T08:31:54Z</time>
      </trkpt>
      <trkpt lat="45.3085" lon="4.68282">
        <ele>619</ele>
        <time>2007-03-11T08:32:08Z</time>
      </trkpt>
      <trkpt lat="45.30833" lon="4.68241">
        <ele>619</ele>
        <time>2007-03-11T08:32:16Z</time>
      </trkpt>
      <trkpt lat="45.3083" lon="4.68202">
        <ele>618</ele>
        <time>2007-03-11T08:32:21Z</time>
      </trkpt>
      <trkpt lat="45.30837" lon="4.68168">
        <ele>617</ele>
        <time>2007-03-11T08:32:25Z</time>
      </trkpt>
      <trkpt lat="45.30839" lon="4.68136">
        <ele>616</ele>
        <time>2007-03-11T08:32:28Z</time>
      </trkpt>
      <trkpt lat="45.3082" lon="4.6803">
        <ele>612</ele>
        <time>2007-03-11T08:32:37Z</time>
      </trkpt>
      <trkpt lat="45.30833" lon="4.67977">
        <ele>612</ele>
        <time>2007-03-11T08:32:42Z</time>
      </trkpt>
      <trkpt lat="45.30854" lon="4.67936">
        <ele>613</ele>
        <time>2007-03-11T08:32:48Z</time>
      </trkpt>
      <trkpt lat="45.30886" lon="4.67863">
        <ele>614</ele>
        <time>2007-03-11T08:33:02Z</time>
      </trkpt>
      <trkpt lat="45.3091" lon="4.67782">
        <ele>617</ele>
        <time>2007-03-11T08:33:18Z</time>
      </trkpt>
      <trkpt lat="45.30933" lon="4.67696">
        <ele>619</ele>
        <time>2007-03-11T08:33:35Z</time>
      </trkpt>
      <trkpt lat="45.30942" lon="4.67625">
        <ele>620</ele>
        <time>2007-03-11T08:33:49Z</time>
      </trkpt>
      <trkpt lat="45.30929" lon="4.67601">
        <ele>620</ele>
        <time>2007-03-11T08:33:55Z</time>
      </trkpt>
      <trkpt lat="45.30933" lon="4.67586">
        <ele>621</ele>
        <time>2007-03-11T08:34:01Z</time>
      </trkpt>
      <trkpt lat="45.30938" lon="4.6758">
        <ele>621</ele>
        <time>2007-03-11T08:34:05Z</time>
      </trkpt>
      <trkpt lat="45.30963" lon="4.67548">
        <ele>625</ele>
        <time>2007-03-11T08:34:23Z</time>
      </trkpt>
      <trkpt lat="45.30989" lon="4.67522">
        <ele>627</ele>
        <time>2007-03-11T08:34:41Z</time>
      </trkpt>
      <trkpt lat="45.31011" lon="4.67515">
        <ele>629</ele>
        <time>2007-03-11T08:34:53Z</time>
      </trkpt>
      <trkpt lat="45.31013" lon="4.67515">
        <ele>629</ele>
        <time>2007-03-11T08:34:54Z</time>
      </trkpt>
      <trkpt lat="45.31026" lon="4.67548">
        <ele>631</ele>
        <time>2007-03-11T08:35:07Z</time>
      </trkpt>
      <trkpt lat="45.31028" lon="4.67586">
        <ele>634</ele>
        <time>2007-03-11T08:35:20Z</time>
      </trkpt>
      <trkpt lat="45.31034" lon="4.67625">
        <ele>637</ele>
        <time>2007-03-11T08:35:34Z</time>
      </trkpt>
      <trkpt lat="45.31039" lon="4.67661">
        <ele>639</ele>
        <time>2007-03-11T08:35:49Z</time>
      </trkpt>
      <trkpt lat="45.31039" lon="4.67696">
        <ele>644</ele>
        <time>2007-03-11T08:36:04Z</time>
      </trkpt>
      <trkpt lat="45.31039" lon="4.67728">
        <ele>644</ele>
        <time>2007-03-11T08:36:19Z</time>
      </trkpt>
      <trkpt lat="45.31043" lon="4.67756">
        <ele>644</ele>
        <time>2007-03-11T08:36:31Z</time>
      </trkpt>
      <trkpt lat="45.31049" lon="4.67782">
        <ele>645</ele>
        <time>2007-03-11T08:36:44Z</time>
      </trkpt>
      <trkpt lat="45.31066" lon="4.67807">
        <ele>647</ele>
        <time>2007-03-11T08:37:01Z</time>
      </trkpt>
      <trkpt lat="45.31084" lon="4.67833">
        <ele>649</ele>
        <time>2007-03-11T08:37:17Z</time>
      </trkpt>
      <trkpt lat="45.31099" lon="4.67859">
        <ele>650</ele>
        <time>2007-03-11T08:37:30Z</time>
      </trkpt>
      <trkpt lat="45.31111" lon="4.67887">
        <ele>652</ele>
        <time>2007-03-11T08:37:45Z</time>
      </trkpt>
      <trkpt lat="45.31127" lon="4.67912">
        <ele>654</ele>
        <time>2007-03-11T08:38:00Z</time>
      </trkpt>
      <trkpt lat="45.31148" lon="4.67936">
        <ele>656</ele>
        <time>2007-03-11T08:38:17Z</time>
      </trkpt>
      <trkpt lat="45.31159" lon="4.67936">
        <ele>657</ele>
        <time>2007-03-11T08:38:24Z</time>
      </trkpt>
      <trkpt lat="45.31157" lon="4.67925">
        <ele>658</ele>
        <time>2007-03-11T08:38:29Z</time>
      </trkpt>
      <trkpt lat="45.31154" lon="4.67897">
        <ele>662</ele>
        <time>2007-03-11T08:38:43Z</time>
      </trkpt>
      <trkpt lat="45.31152" lon="4.67897">
        <ele>662</ele>
        <time>2007-03-11T08:38:54Z</time>
      </trkpt>
      <trkpt lat="45.31152" lon="4.67897">
        <ele>662</ele>
        <time>2007-03-11T08:39:21Z</time>
      </trkpt>
      <trkpt lat="45.3115" lon="4.6788">
        <ele>664</ele>
        <time>2007-03-11T08:39:40Z</time>
      </trkpt>
      <trkpt lat="45.31148" lon="4.67846">
        <ele>667</ele>
        <time>2007-03-11T08:39:56Z</time>
      </trkpt>
      <trkpt lat="45.31148" lon="4.67831">
        <ele>668</ele>
        <time>2007-03-11T08:40:03Z</time>
      </trkpt>
      <trkpt lat="45.31146" lon="4.67807">
        <ele>669</ele>
        <time>2007-03-11T08:40:17Z</time>
      </trkpt>
      <trkpt lat="45.31144" lon="4.67799">
        <ele>670</ele>
        <time>2007-03-11T08:40:22Z</time>
      </trkpt>
      <trkpt lat="45.31148" lon="4.67792">
        <ele>669</ele>
        <time>2007-03-11T08:40:33Z</time>
      </trkpt>
      <trkpt lat="45.31146" lon="4.6779">
        <ele>671</ele>
        <time>2007-03-11T08:41:42Z</time>
      </trkpt>
      <trkpt lat="45.31144" lon="4.67786">
        <ele>671</ele>
        <time>2007-03-11T08:41:45Z</time>
      </trkpt>
      <trkpt lat="45.31144" lon="4.67739">
        <ele>674</ele>
        <time>2007-03-11T08:41:59Z</time>
      </trkpt>
      <trkpt lat="45.31148" lon="4.67685">
        <ele>678</ele>
        <time>2007-03-11T08:42:15Z</time>
      </trkpt>
      <trkpt lat="45.31152" lon="4.67661">
        <ele>679</ele>
        <time>2007-03-11T08:42:27Z</time>
      </trkpt>
      <trkpt lat="45.31159" lon="4.67638">
        <ele>682</ele>
        <time>2007-03-11T08:42:41Z</time>
      </trkpt>
      <trkpt lat="45.31167" lon="4.6761">
        <ele>683</ele>
        <time>2007-03-11T08:42:58Z</time>
      </trkpt>
      <trkpt lat="45.31169" lon="4.67603">
        <ele>684</ele>
        <time>2007-03-11T08:43:02Z</time>
      </trkpt>
      <trkpt lat="45.31176" lon="4.67591">
        <ele>685</ele>
        <time>2007-03-11T08:43:12Z</time>
      </trkpt>
      <trkpt lat="45.31187" lon="4.67597">
        <ele>687</ele>
        <time>2007-03-11T08:43:20Z</time>
      </trkpt>
      <trkpt lat="45.31195" lon="4.67618">
        <ele>689</ele>
        <time>2007-03-11T08:43:35Z</time>
      </trkpt>
      <trkpt lat="45.31206" lon="4.67642">
        <ele>692</ele>
        <time>2007-03-11T08:43:52Z</time>
      </trkpt>
      <trkpt lat="45.31212" lon="4.67661">
        <ele>694</ele>
        <time>2007-03-11T08:44:06Z</time>
      </trkpt>
      <trkpt lat="45.31219" lon="4.67679">
        <ele>694</ele>
        <time>2007-03-11T08:44:19Z</time>
      </trkpt>
      <trkpt lat="45.31223" lon="4.67687">
        <ele>695</ele>
        <time>2007-03-11T08:44:32Z</time>
      </trkpt>
      <trkpt lat="45.31232" lon="4.67698">
        <ele>696</ele>
        <time>2007-03-11T08:44:45Z</time>
      </trkpt>
      <trkpt lat="45.31242" lon="4.67715">
        <ele>697</ele>
        <time>2007-03-11T08:45:01Z</time>
      </trkpt>
      <trkpt lat="45.31247" lon="4.67721">
        <ele>698</ele>
        <time>2007-03-11T08:45:07Z</time>
      </trkpt>
      <trkpt lat="45.3126" lon="4.67736">
        <ele>699</ele>
        <time>2007-03-11T08:45:22Z</time>
      </trkpt>
      <trkpt lat="45.3127" lon="4.67756">
        <ele>700</ele>
        <time>2007-03-11T08:45:35Z</time>
      </trkpt>
      <trkpt lat="45.31287" lon="4.67775">
        <ele>701</ele>
        <time>2007-03-11T08:45:52Z</time>
      </trkpt>
      <trkpt lat="45.31311" lon="4.67788">
        <ele>703</ele>
        <time>2007-03-11T08:46:10Z</time>
      </trkpt>
      <trkpt lat="45.31328" lon="4.67799">
        <ele>704</ele>
        <time>2007-03-11T08:46:25Z</time>
      </trkpt>
      <trkpt lat="45.3135" lon="4.67807">
        <ele>706</ele>
        <time>2007-03-11T08:46:41Z</time>
      </trkpt>
      <trkpt lat="45.31354" lon="4.67809">
        <ele>706</ele>
        <time>2007-03-11T08:46:46Z</time>
      </trkpt>
      <trkpt lat="45.31365" lon="4.67816">
        <ele>709</ele>
        <time>2007-03-11T08:47:03Z</time>
      </trkpt>
      <trkpt lat="45.31373" lon="4.67818">
        <ele>712</ele>
        <time>2007-03-11T08:47:54Z</time>
      </trkpt>
      <trkpt lat="45.31423" lon="4.67833">
        <ele>712</ele>
        <time>2007-03-11T08:48:08Z</time>
      </trkpt>
      <trkpt lat="45.31429" lon="4.67835">
        <ele>714</ele>
        <time>2007-03-11T08:48:17Z</time>
      </trkpt>
      <trkpt lat="45.31433" lon="4.67833">
        <ele>716</ele>
        <time>2007-03-11T08:48:27Z</time>
      </trkpt>
      <trkpt lat="45.31444" lon="4.67835">
        <ele>716</ele>
        <time>2007-03-11T08:48:39Z</time>
      </trkpt>
      <trkpt lat="45.31457" lon="4.67837">
        <ele>717</ele>
        <time>2007-03-11T08:48:52Z</time>
      </trkpt>
      <trkpt lat="45.31459" lon="4.67837">
        <ele>719</ele>
        <time>2007-03-11T08:49:16Z</time>
      </trkpt>
      <trkpt lat="45.31461" lon="4.67837">
        <ele>719</ele>
        <time>2007-03-11T08:49:23Z</time>
      </trkpt>
      <trkpt lat="45.31468" lon="4.67835">
        <ele>719</ele>
        <time>2007-03-11T08:49:38Z</time>
      </trkpt>
      <trkpt lat="45.31481" lon="4.67837">
        <ele>720</ele>
        <time>2007-03-11T08:49:50Z</time>
      </trkpt>
      <trkpt lat="45.31489" lon="4.67839">
        <ele>720</ele>
        <time>2007-03-11T08:50:03Z</time>
      </trkpt>
      <trkpt lat="45.31493" lon="4.67846">
        <ele>719</ele>
        <time>2007-03-11T08:50:13Z</time>
      </trkpt>
      <trkpt lat="45.31502" lon="4.67842">
        <ele>720</ele>
        <time>2007-03-11T08:50:25Z</time>
      </trkpt>
      <trkpt lat="45.31508" lon="4.67839">
        <ele>720</ele>
        <time>2007-03-11T08:50:31Z</time>
      </trkpt>
      <trkpt lat="45.31517" lon="4.67837">
        <ele>722</ele>
        <time>2007-03-11T08:50:41Z</time>
      </trkpt>
      <trkpt lat="45.31519" lon="4.67837">
        <ele>722</ele>
        <time>2007-03-11T08:50:42Z</time>
      </trkpt>
      <trkpt lat="45.31526" lon="4.67839">
        <ele>722</ele>
        <time>2007-03-11T08:50:47Z</time>
      </trkpt>
      <trkpt lat="45.31549" lon="4.67844">
        <ele>726</ele>
        <time>2007-03-11T08:51:03Z</time>
      </trkpt>
      <trkpt lat="45.31571" lon="4.67842">
        <ele>729</ele>
        <time>2007-03-11T08:51:18Z</time>
      </trkpt>
      <trkpt lat="45.31579" lon="4.67827">
        <ele>733</ele>
        <time>2007-03-11T08:51:30Z</time>
      </trkpt>
      <trkpt lat="45.31586" lon="4.67816">
        <ele>734</ele>
        <time>2007-03-11T08:51:37Z</time>
      </trkpt>
      <trkpt lat="45.3159" lon="4.67812">
        <ele>734</ele>
        <time>2007-03-11T08:51:47Z</time>
      </trkpt>
      <trkpt lat="45.31592" lon="4.67812">
        <ele>734</ele>
        <time>2007-03-11T08:51:56Z</time>
      </trkpt>
      <trkpt lat="45.31592" lon="4.67805">
        <ele>736</ele>
        <time>2007-03-11T08:52:47Z</time>
      </trkpt>
      <trkpt lat="45.31601" lon="4.67801">
        <ele>736</ele>
        <time>2007-03-11T08:52:53Z</time>
      </trkpt>
      <trkpt lat="45.31603" lon="4.6779">
        <ele>735</ele>
        <time>2007-03-11T08:53:04Z</time>
      </trkpt>
      <trkpt lat="45.31603" lon="4.6779">
        <ele>735</ele>
        <time>2007-03-11T08:53:37Z</time>
      </trkpt>
      <trkpt lat="45.31607" lon="4.67754">
        <ele>735</ele>
        <time>2007-03-11T08:53:49Z</time>
      </trkpt>
      <trkpt lat="45.31611" lon="4.67711">
        <ele>734</ele>
        <time>2007-03-11T08:54:01Z</time>
      </trkpt>
      <trkpt lat="45.31624" lon="4.67681">
        <ele>733</ele>
        <time>2007-03-11T08:54:11Z</time>
      </trkpt>
      <trkpt lat="45.3165" lon="4.67655">
        <ele>732</ele>
        <time>2007-03-11T08:54:21Z</time>
      </trkpt>
      <trkpt lat="45.31661" lon="4.67646">
        <ele>733</ele>
        <time>2007-03-11T08:54:29Z</time>
      </trkpt>
      <trkpt lat="45.31661" lon="4.67646">
        <ele>733</ele>
        <time>2007-03-11T08:54:49Z</time>
      </trkpt>
      <trkpt lat="45.31657" lon="4.67649">
        <ele>734</ele>
        <time>2007-03-11T08:54:59Z</time>
      </trkpt>
      <trkpt lat="45.31657" lon="4.67644">
        <ele>733</ele>
        <time>2007-03-11T08:55:16Z</time>
      </trkpt>
      <trkpt lat="45.31657" lon="4.67642">
        <ele>733</ele>
        <time>2007-03-11T08:55:25Z</time>
      </trkpt>
      <trkpt lat="45.31659" lon="4.6764">
        <ele>733</ele>
        <time>2007-03-11T08:55:34Z</time>
      </trkpt>
      <trkpt lat="45.31665" lon="4.67629">
        <ele>731</ele>
        <time>2007-03-11T08:55:40Z</time>
      </trkpt>
      <trkpt lat="45.31663" lon="4.67621">
        <ele>730</ele>
        <time>2007-03-11T08:55:43Z</time>
      </trkpt>
      <trkpt lat="45.31659" lon="4.67603">
        <ele>729</ele>
        <time>2007-03-11T08:55:46Z</time>
      </trkpt>
      <trkpt lat="45.31618" lon="4.67524">
        <ele>725</ele>
        <time>2007-03-11T08:56:00Z</time>
      </trkpt>
      <trkpt lat="45.31581" lon="4.67453">
        <ele>721</ele>
        <time>2007-03-11T08:56:10Z</time>
      </trkpt>
      <trkpt lat="45.31538" lon="4.67325">
        <ele>712</ele>
        <time>2007-03-11T08:56:25Z</time>
      </trkpt>
      <trkpt lat="45.31528" lon="4.67252">
        <ele>711</ele>
        <time>2007-03-11T08:56:35Z</time>
      </trkpt>
      <trkpt lat="45.31532" lon="4.67234">
        <ele>710</ele>
        <time>2007-03-11T08:56:43Z</time>
      </trkpt>
      <trkpt lat="45.31534" lon="4.67234">
        <ele>710</ele>
        <time>2007-03-11T08:57:03Z</time>
      </trkpt>
      <trkpt lat="45.31534" lon="4.67234">
        <ele>708</ele>
        <time>2007-03-11T08:57:25Z</time>
      </trkpt>
      <trkpt lat="45.31543" lon="4.67226">
        <ele>710</ele>
        <time>2007-03-11T08:57:34Z</time>
      </trkpt>
      <trkpt lat="45.31545" lon="4.67224">
        <ele>710</ele>
        <time>2007-03-11T08:57:36Z</time>
      </trkpt>
      <trkpt lat="45.31551" lon="4.67204">
        <ele>711</ele>
        <time>2007-03-11T08:57:50Z</time>
      </trkpt>
      <trkpt lat="45.31551" lon="4.67202">
        <ele>711</ele>
        <time>2007-03-11T08:57:53Z</time>
      </trkpt>
      <trkpt lat="45.31551" lon="4.67187">
        <ele>709</ele>
        <time>2007-03-11T08:57:57Z</time>
      </trkpt>
      <trkpt lat="45.31558" lon="4.67155">
        <ele>707</ele>
        <time>2007-03-11T08:58:03Z</time>
      </trkpt>
      <trkpt lat="45.31556" lon="4.67114">
        <ele>709</ele>
        <time>2007-03-11T08:58:12Z</time>
      </trkpt>
      <trkpt lat="45.31549" lon="4.67082">
        <ele>708</ele>
        <time>2007-03-11T08:58:22Z</time>
      </trkpt>
      <trkpt lat="45.31551" lon="4.67048">
        <ele>707</ele>
        <time>2007-03-11T08:58:31Z</time>
      </trkpt>
      <trkpt lat="45.31556" lon="4.67005">
        <ele>708</ele>
        <time>2007-03-11T08:58:43Z</time>
      </trkpt>
      <trkpt lat="45.31564" lon="4.66964">
        <ele>710</ele>
        <time>2007-03-11T08:58:57Z</time>
      </trkpt>
      <trkpt lat="45.31562" lon="4.66928">
        <ele>710</ele>
        <time>2007-03-11T08:59:10Z</time>
      </trkpt>
      <trkpt lat="45.3156" lon="4.66893">
        <ele>711</ele>
        <time>2007-03-11T08:59:24Z</time>
      </trkpt>
      <trkpt lat="45.3156" lon="4.66891">
        <ele>711</ele>
        <time>2007-03-11T08:59:30Z</time>
      </trkpt>
      <trkpt lat="45.31562" lon="4.66891">
        <ele>711</ele>
        <time>2007-03-11T08:59:38Z</time>
      </trkpt>
      <trkpt lat="45.31562" lon="4.66889">
        <ele>712</ele>
        <time>2007-03-11T09:00:33Z</time>
      </trkpt>
      <trkpt lat="45.31558" lon="4.66874">
        <ele>711</ele>
        <time>2007-03-11T09:00:43Z</time>
      </trkpt>
      <trkpt lat="45.31549" lon="4.6684">
        <ele>711</ele>
        <time>2007-03-11T09:00:55Z</time>
      </trkpt>
      <trkpt lat="45.31543" lon="4.66807">
        <ele>711</ele>
        <time>2007-03-11T09:01:06Z</time>
      </trkpt>
      <trkpt lat="45.31543" lon="4.66799">
        <ele>711</ele>
        <time>2007-03-11T09:01:10Z</time>
      </trkpt>
      <trkpt lat="45.31545" lon="4.66762">
        <ele>710</ele>
        <time>2007-03-11T09:01:23Z</time>
      </trkpt>
      <trkpt lat="45.31556" lon="4.66722">
        <ele>709</ele>
        <time>2007-03-11T09:01:38Z</time>
      </trkpt>
      <trkpt lat="45.31547" lon="4.66672">
        <ele>710</ele>
        <time>2007-03-11T09:01:53Z</time>
      </trkpt>
      <trkpt lat="45.31545" lon="4.66668">
        <ele>710</ele>
        <time>2007-03-11T09:02:01Z</time>
      </trkpt>
      <trkpt lat="45.31532" lon="4.66651">
        <ele>710</ele>
        <time>2007-03-11T09:03:23Z</time>
      </trkpt>
      <trkpt lat="45.31532" lon="4.66651">
        <ele>710</ele>
        <time>2007-03-11T09:03:24Z</time>
      </trkpt>
      <trkpt lat="45.31519" lon="4.66629">
        <ele>710</ele>
        <time>2007-03-11T09:03:31Z</time>
      </trkpt>
      <trkpt lat="45.31511" lon="4.66597">
        <ele>709</ele>
        <time>2007-03-11T09:03:39Z</time>
      </trkpt>
      <trkpt lat="45.31496" lon="4.66541">
        <ele>709</ele>
        <time>2007-03-11T09:03:53Z</time>
      </trkpt>
      <trkpt lat="45.31496" lon="4.66507">
        <ele>711</ele>
        <time>2007-03-11T09:04:02Z</time>
      </trkpt>
      <trkpt lat="45.31502" lon="4.66479">
        <ele>711</ele>
        <time>2007-03-11T09:04:12Z</time>
      </trkpt>
      <trkpt lat="45.31502" lon="4.66477">
        <ele>711</ele>
        <time>2007-03-11T09:04:13Z</time>
      </trkpt>
      <trkpt lat="45.31496" lon="4.66481">
        <ele>711</ele>
        <time>2007-03-11T09:04:17Z</time>
      </trkpt>
      <trkpt lat="45.31474" lon="4.66516">
        <ele>709</ele>
        <time>2007-03-11T09:04:26Z</time>
      </trkpt>
      <trkpt lat="45.31459" lon="4.66516">
        <ele>707</ele>
        <time>2007-03-11T09:04:31Z</time>
      </trkpt>
      <trkpt lat="45.31444" lon="4.66513">
        <ele>706</ele>
        <time>2007-03-11T09:04:35Z</time>
      </trkpt>
      <trkpt lat="45.31416" lon="4.66503">
        <ele>706</ele>
        <time>2007-03-11T09:04:42Z</time>
      </trkpt>
      <trkpt lat="45.31397" lon="4.66486">
        <ele>706</ele>
        <time>2007-03-11T09:04:47Z</time>
      </trkpt>
      <trkpt lat="45.31388" lon="4.66475">
        <ele>705</ele>
        <time>2007-03-11T09:04:49Z</time>
      </trkpt>
      <trkpt lat="45.3138" lon="4.66443">
        <ele>704</ele>
        <time>2007-03-11T09:04:53Z</time>
      </trkpt>
      <trkpt lat="45.31375" lon="4.66376">
        <ele>701</ele>
        <time>2007-03-11T09:05:00Z</time>
      </trkpt>
      <trkpt lat="45.3138" lon="4.66359">
        <ele>700</ele>
        <time>2007-03-11T09:05:02Z</time>
      </trkpt>
      <trkpt lat="45.31388" lon="4.66282">
        <ele>695</ele>
        <time>2007-03-11T09:05:10Z</time>
      </trkpt>
      <trkpt lat="45.31395" lon="4.6623">
        <ele>691</ele>
        <time>2007-03-11T09:05:15Z</time>
      </trkpt>
      <trkpt lat="45.31408" lon="4.66179">
        <ele>685</ele>
        <time>2007-03-11T09:05:23Z</time>
      </trkpt>
      <trkpt lat="45.31414" lon="4.66161">
        <ele>683</ele>
        <time>2007-03-11T09:05:26Z</time>
      </trkpt>
      <trkpt lat="45.31418" lon="4.66134">
        <ele>680</ele>
        <time>2007-03-11T09:05:30Z</time>
      </trkpt>
      <trkpt lat="45.31416" lon="4.66093">
        <ele>678</ele>
        <time>2007-03-11T09:05:35Z</time>
      </trkpt>
      <trkpt lat="45.3139" lon="4.66011">
        <ele>674</ele>
        <time>2007-03-11T09:05:47Z</time>
      </trkpt>
      <trkpt lat="45.3139" lon="4.66011">
        <ele>673</ele>
        <time>2007-03-11T09:05:53Z</time>
      </trkpt>
      <trkpt lat="45.31386" lon="4.65986">
        <ele>670</ele>
        <time>2007-03-11T09:06:00Z</time>
      </trkpt>
      <trkpt lat="45.31388" lon="4.6591">
        <ele>668</ele>
        <time>2007-03-11T09:06:11Z</time>
      </trkpt>
      <trkpt lat="45.31382" lon="4.65876">
        <ele>666</ele>
        <time>2007-03-11T09:06:15Z</time>
      </trkpt>
      <trkpt lat="45.31386" lon="4.6585">
        <ele>664</ele>
        <time>2007-03-11T09:06:21Z</time>
      </trkpt>
      <trkpt lat="45.31386" lon="4.6585">
        <ele>663</ele>
        <time>2007-03-11T09:06:29Z</time>
      </trkpt>
      <trkpt lat="45.31384" lon="4.6585">
        <ele>663</ele>
        <time>2007-03-11T09:06:34Z</time>
      </trkpt>
      <trkpt lat="45.3138" lon="4.65876">
        <ele>664</ele>
        <time>2007-03-11T09:06:47Z</time>
      </trkpt>
      <trkpt lat="45.31384" lon="4.65885">
        <ele>664</ele>
        <time>2007-03-11T09:06:55Z</time>
      </trkpt>
      <trkpt lat="45.31388" lon="4.65925">
        <ele>664</ele>
        <time>2007-03-11T09:07:11Z</time>
      </trkpt>
      <trkpt lat="45.31388" lon="4.65956">
        <ele>665</ele>
        <time>2007-03-11T09:07:25Z</time>
      </trkpt>
      <trkpt lat="45.3139" lon="4.65986">
        <ele>666</ele>
        <time>2007-03-11T09:07:39Z</time>
      </trkpt>
      <trkpt lat="45.31388" lon="4.66009">
        <ele>666</ele>
        <time>2007-03-11T09:07:50Z</time>
      </trkpt>
      <trkpt lat="45.31382" lon="4.66003">
        <ele>666</ele>
        <time>2007-03-11T09:07:55Z</time>
      </trkpt>
      <trkpt lat="45.31358" lon="4.65968">
        <ele>664</ele>
        <time>2007-03-11T09:08:04Z</time>
      </trkpt>
      <trkpt lat="45.31348" lon="4.65951">
        <ele>663</ele>
        <time>2007-03-11T09:08:07Z</time>
      </trkpt>
      <trkpt lat="45.31332" lon="4.65934">
        <ele>662</ele>
        <time>2007-03-11T09:08:10Z</time>
      </trkpt>
      <trkpt lat="45.31264" lon="4.6587">
        <ele>658</ele>
        <time>2007-03-11T09:08:20Z</time>
      </trkpt>
      <trkpt lat="45.31255" lon="4.65853">
        <ele>657</ele>
        <time>2007-03-11T09:08:22Z</time>
      </trkpt>
      <trkpt lat="45.3124" lon="4.65825">
        <ele>655</ele>
        <time>2007-03-11T09:08:26Z</time>
      </trkpt>
      <trkpt lat="45.31227" lon="4.6581">
        <ele>653</ele>
        <time>2007-03-11T09:08:30Z</time>
      </trkpt>
      <trkpt lat="45.31204" lon="4.6579">
        <ele>647</ele>
        <time>2007-03-11T09:08:39Z</time>
      </trkpt>
      <trkpt lat="45.31178" lon="4.65734">
        <ele>641</ele>
        <time>2007-03-11T09:08:51Z</time>
      </trkpt>
      <trkpt lat="45.31148" lon="4.65677">
        <ele>636</ele>
        <time>2007-03-11T09:09:02Z</time>
      </trkpt>
      <trkpt lat="45.31157" lon="4.65662">
        <ele>632</ele>
        <time>2007-03-11T09:09:09Z</time>
      </trkpt>
      <trkpt lat="45.31161" lon="4.65662">
        <ele>631</ele>
        <time>2007-03-11T09:09:11Z</time>
      </trkpt>
      <trkpt lat="45.3118" lon="4.65664">
        <ele>629</ele>
        <time>2007-03-11T09:09:23Z</time>
      </trkpt>
      <trkpt lat="45.31197" lon="4.65666">
        <ele>627</ele>
        <time>2007-03-11T09:09:36Z</time>
      </trkpt>
      <trkpt lat="45.31219" lon="4.65666">
        <ele>625</ele>
        <time>2007-03-11T09:09:50Z</time>
      </trkpt>
      <trkpt lat="45.31242" lon="4.65674">
        <ele>625</ele>
        <time>2007-03-11T09:10:03Z</time>
      </trkpt>
      <trkpt lat="45.31268" lon="4.65679">
        <ele>626</ele>
        <time>2007-03-11T09:10:19Z</time>
      </trkpt>
      <trkpt lat="45.3129" lon="4.65679">
        <ele>627</ele>
        <time>2007-03-11T09:10:33Z</time>
      </trkpt>
      <trkpt lat="45.3129" lon="4.65679">
        <ele>628</ele>
        <time>2007-03-11T09:10:43Z</time>
      </trkpt>
      <trkpt lat="45.31281" lon="4.65679">
        <ele>627</ele>
        <time>2007-03-11T09:10:48Z</time>
      </trkpt>
      <trkpt lat="45.31242" lon="4.65674">
        <ele>625</ele>
        <time>2007-03-11T09:11:02Z</time>
      </trkpt>
      <trkpt lat="45.31227" lon="4.6567">
        <ele>625</ele>
        <time>2007-03-11T09:11:06Z</time>
      </trkpt>
      <trkpt lat="45.31184" lon="4.65664">
        <ele>622</ele>
        <time>2007-03-11T09:11:18Z</time>
      </trkpt>
      <trkpt lat="45.31133" lon="4.65655">
        <ele>619</ele>
        <time>2007-03-11T09:11:30Z</time>
      </trkpt>
      <trkpt lat="45.31127" lon="4.65651">
        <ele>617</ele>
        <time>2007-03-11T09:11:32Z</time>
      </trkpt>
      <trkpt lat="45.31129" lon="4.65631">
        <ele>616</ele>
        <time>2007-03-11T09:11:38Z</time>
      </trkpt>
      <trkpt lat="45.31139" lon="4.65625">
        <ele>615</ele>
        <time>2007-03-11T09:11:42Z</time>
      </trkpt>
      <trkpt lat="45.31163" lon="4.65604">
        <ele>614</ele>
        <time>2007-03-11T09:11:51Z</time>
      </trkpt>
      <trkpt lat="45.31187" lon="4.65531">
        <ele>609</ele>
        <time>2007-03-11T09:12:00Z</time>
      </trkpt>
      <trkpt lat="45.3123" lon="4.65417">
        <ele>604</ele>
        <time>2007-03-11T09:12:10Z</time>
      </trkpt>
      <trkpt lat="45.31232" lon="4.65342">
        <ele>603</ele>
        <time>2007-03-11T09:12:16Z</time>
      </trkpt>
      <trkpt lat="45.31221" lon="4.65288">
        <ele>602</ele>
        <time>2007-03-11T09:12:21Z</time>
      </trkpt>
      <trkpt lat="45.3123" lon="4.65209">
        <ele>603</ele>
        <time>2007-03-11T09:12:30Z</time>
      </trkpt>
      <trkpt lat="45.31249" lon="4.65097">
        <ele>604</ele>
        <time>2007-03-11T09:12:46Z</time>
      </trkpt>
      <trkpt lat="45.31275" lon="4.65014">
        <ele>601</ele>
        <time>2007-03-11T09:12:58Z</time>
      </trkpt>
      <trkpt lat="45.31322" lon="4.64936">
        <ele>599</ele>
        <time>2007-03-11T09:13:10Z</time>
      </trkpt>
      <trkpt lat="45.31358" lon="4.64857">
        <ele>598</ele>
        <time>2007-03-11T09:13:22Z</time>
      </trkpt>
      <trkpt lat="45.31395" lon="4.64771">
        <ele>597</ele>
        <time>2007-03-11T09:13:36Z</time>
      </trkpt>
      <trkpt lat="45.31403" lon="4.64728">
        <ele>595</ele>
        <time>2007-03-11T09:13:43Z</time>
      </trkpt>
      <trkpt lat="45.3141" lon="4.64711">
        <ele>595</ele>
        <time>2007-03-11T09:13:46Z</time>
      </trkpt>
      <trkpt lat="45.31455" lon="4.64642">
        <ele>596</ele>
        <time>2007-03-11T09:14:00Z</time>
      </trkpt>
      <trkpt lat="45.31478" lon="4.64606">
        <ele>596</ele>
        <time>2007-03-11T09:14:09Z</time>
      </trkpt>
      <trkpt lat="45.31468" lon="4.64599">
        <ele>596</ele>
        <time>2007-03-11T09:14:17Z</time>
      </trkpt>
      <trkpt lat="45.31444" lon="4.64569">
        <ele>595</ele>
        <time>2007-03-11T09:14:25Z</time>
      </trkpt>
      <trkpt lat="45.31418" lon="4.64494">
        <ele>593</ele>
        <time>2007-03-11T09:14:38Z</time>
      </trkpt>
      <trkpt lat="45.31401" lon="4.64438">
        <ele>594</ele>
        <time>2007-03-11T09:14:49Z</time>
      </trkpt>
      <trkpt lat="45.31393" lon="4.64413">
        <ele>594</ele>
        <time>2007-03-11T09:14:54Z</time>
      </trkpt>
      <trkpt lat="45.31367" lon="4.6432">
        <ele>591</ele>
        <time>2007-03-11T09:15:03Z</time>
      </trkpt>
      <trkpt lat="45.31322" lon="4.64175">
        <ele>587</ele>
        <time>2007-03-11T09:15:17Z</time>
      </trkpt>
      <trkpt lat="45.31296" lon="4.64076">
        <ele>583</ele>
        <time>2007-03-11T09:15:28Z</time>
      </trkpt>
      <trkpt lat="45.31275" lon="4.63947">
        <ele>575</ele>
        <time>2007-03-11T09:15:42Z</time>
      </trkpt>
      <trkpt lat="45.3126" lon="4.63851">
        <ele>569</ele>
        <time>2007-03-11T09:15:54Z</time>
      </trkpt>
      <trkpt lat="45.3126" lon="4.63784">
        <ele>567</ele>
        <time>2007-03-11T09:16:04Z</time>
      </trkpt>
      <trkpt lat="45.3126" lon="4.63752">
        <ele>563</ele>
        <time>2007-03-11T09:16:09Z</time>
      </trkpt>
      <trkpt lat="45.3127" lon="4.63717">
        <ele>561</ele>
        <time>2007-03-11T09:16:15Z</time>
      </trkpt>
      <trkpt lat="45.31287" lon="4.6367">
        <ele>558</ele>
        <time>2007-03-11T09:16:26Z</time>
      </trkpt>
      <trkpt lat="45.31332" lon="4.63642">
        <ele>556</ele>
        <time>2007-03-11T09:16:38Z</time>
      </trkpt>
      <trkpt lat="45.31397" lon="4.63614">
        <ele>554</ele>
        <time>2007-03-11T09:16:55Z</time>
      </trkpt>
      <trkpt lat="45.31472" lon="4.63591">
        <ele>554</ele>
        <time>2007-03-11T09:17:14Z</time>
      </trkpt>
      <trkpt lat="45.31502" lon="4.6358">
        <ele>553</ele>
        <time>2007-03-11T09:17:22Z</time>
      </trkpt>
      <trkpt lat="45.31511" lon="4.63576">
        <ele>554</ele>
        <time>2007-03-11T09:17:26Z</time>
      </trkpt>
      <trkpt lat="45.31481" lon="4.63582">
        <ele>554</ele>
        <time>2007-03-11T09:17:38Z</time>
      </trkpt>
      <trkpt lat="45.31448" lon="4.63593">
        <ele>553</ele>
        <time>2007-03-11T09:17:47Z</time>
      </trkpt>
      <trkpt lat="45.31446" lon="4.63582">
        <ele>553</ele>
        <time>2007-03-11T09:17:51Z</time>
      </trkpt>
      <trkpt lat="45.31474" lon="4.63561">
        <ele>551</ele>
        <time>2007-03-11T09:17:59Z</time>
      </trkpt>
      <trkpt lat="45.31504" lon="4.63509">
        <ele>550</ele>
        <time>2007-03-11T09:18:06Z</time>
      </trkpt>
      <trkpt lat="45.31521" lon="4.63496">
        <ele>548</ele>
        <time>2007-03-11T09:18:16Z</time>
      </trkpt>
      <trkpt lat="45.31528" lon="4.63464">
        <ele>545</ele>
        <time>2007-03-11T09:18:28Z</time>
      </trkpt>
      <trkpt lat="45.31519" lon="4.63417">
        <ele>544</ele>
        <time>2007-03-11T09:18:44Z</time>
      </trkpt>
      <trkpt lat="45.31496" lon="4.63368">
        <ele>535</ele>
        <time>2007-03-11T09:20:16Z</time>
      </trkpt>
      <trkpt lat="45.31472" lon="4.63348">
        <ele>537</ele>
        <time>2007-03-11T09:20:30Z</time>
      </trkpt>
      <trkpt lat="45.31451" lon="4.63331">
        <ele>542</ele>
        <time>2007-03-11T09:20:44Z</time>
      </trkpt>
      <trkpt lat="45.31433" lon="4.63314">
        <ele>546</ele>
        <time>2007-03-11T09:20:59Z</time>
      </trkpt>
      <trkpt lat="45.31418" lon="4.63297">
        <ele>547</ele>
        <time>2007-03-11T09:21:14Z</time>
      </trkpt>
      <trkpt lat="45.31405" lon="4.63288">
        <ele>549</ele>
        <time>2007-03-11T09:21:28Z</time>
      </trkpt>
      <trkpt lat="45.31395" lon="4.63278">
        <ele>550</ele>
        <time>2007-03-11T09:21:39Z</time>
      </trkpt>
      <trkpt lat="45.3139" lon="4.63278">
        <ele>550</ele>
        <time>2007-03-11T09:21:43Z</time>
      </trkpt>
      <trkpt lat="45.31367" lon="4.63282">
        <ele>549</ele>
        <time>2007-03-11T09:21:56Z</time>
      </trkpt>
      <trkpt lat="45.31337" lon="4.63286">
        <ele>549</ele>
        <time>2007-03-11T09:22:10Z</time>
      </trkpt>
      <trkpt lat="45.31296" lon="4.63286">
        <ele>548</ele>
        <time>2007-03-11T09:22:27Z</time>
      </trkpt>
      <trkpt lat="45.31268" lon="4.63275">
        <ele>545</ele>
        <time>2007-03-11T09:22:33Z</time>
      </trkpt>
      <trkpt lat="45.31247" lon="4.63282">
        <ele>545</ele>
        <time>2007-03-11T09:22:37Z</time>
      </trkpt>
      <trkpt lat="45.3123" lon="4.63295">
        <ele>545</ele>
        <time>2007-03-11T09:22:41Z</time>
      </trkpt>
      <trkpt lat="45.3118" lon="4.63308">
        <ele>547</ele>
        <time>2007-03-11T09:22:56Z</time>
      </trkpt>
      <trkpt lat="45.31133" lon="4.63316">
        <ele>546</ele>
        <time>2007-03-11T09:23:08Z</time>
      </trkpt>
      <trkpt lat="45.31062" lon="4.63329">
        <ele>545</ele>
        <time>2007-03-11T09:23:24Z</time>
      </trkpt>
      <trkpt lat="45.31043" lon="4.63333">
        <ele>545</ele>
        <time>2007-03-11T09:23:29Z</time>
      </trkpt>
      <trkpt lat="45.31015" lon="4.63323">
        <ele>545</ele>
        <time>2007-03-11T09:23:36Z</time>
      </trkpt>
      <trkpt lat="45.30991" lon="4.63299">
        <ele>545</ele>
        <time>2007-03-11T09:23:42Z</time>
      </trkpt>
      <trkpt lat="45.30978" lon="4.63295">
        <ele>545</ele>
        <time>2007-03-11T09:23:45Z</time>
      </trkpt>
      <trkpt lat="45.30972" lon="4.63314">
        <ele>550</ele>
        <time>2007-03-11T09:23:55Z</time>
      </trkpt>
      <trkpt lat="45.30974" lon="4.63312">
        <ele>549</ele>
        <time>2007-03-11T09:23:58Z</time>
      </trkpt>
      <trkpt lat="45.30974" lon="4.63308">
        <ele>549</ele>
        <time>2007-03-11T09:24:04Z</time>
      </trkpt>
      <trkpt lat="45.30968" lon="4.63314">
        <ele>549</ele>
        <time>2007-03-11T09:24:08Z</time>
      </trkpt>
      <trkpt lat="45.30931" lon="4.63353">
        <ele>551</ele>
        <time>2007-03-11T09:24:26Z</time>
      </trkpt>
      <trkpt lat="45.30908" lon="4.63376">
        <ele>550</ele>
        <time>2007-03-11T09:24:36Z</time>
      </trkpt>
      <trkpt lat="45.30884" lon="4.634">
        <ele>553</ele>
        <time>2007-03-11T09:24:50Z</time>
      </trkpt>
      <trkpt lat="45.30858" lon="4.63426">
        <ele>554</ele>
        <time>2007-03-11T09:25:06Z</time>
      </trkpt>
      <trkpt lat="45.30828" lon="4.63449">
        <ele>556</ele>
        <time>2007-03-11T09:25:22Z</time>
      </trkpt>
      <trkpt lat="45.30805" lon="4.63469">
        <ele>557</ele>
        <time>2007-03-11T09:25:35Z</time>
      </trkpt>
      <trkpt lat="45.3077" lon="4.63479">
        <ele>557</ele>
        <time>2007-03-11T09:25:52Z</time>
      </trkpt>
      <trkpt lat="45.30742" lon="4.63481">
        <ele>557</ele>
        <time>2007-03-11T09:26:06Z</time>
      </trkpt>
      <trkpt lat="45.30725" lon="4.63518">
        <ele>560</ele>
        <time>2007-03-11T09:26:22Z</time>
      </trkpt>
      <trkpt lat="45.3071" lon="4.63546">
        <ele>562</ele>
        <time>2007-03-11T09:26:36Z</time>
      </trkpt>
      <trkpt lat="45.30684" lon="4.63567">
        <ele>565</ele>
        <time>2007-03-11T09:26:54Z</time>
      </trkpt>
      <trkpt lat="45.30659" lon="4.63569">
        <ele>567</ele>
        <time>2007-03-11T09:27:10Z</time>
      </trkpt>
      <trkpt lat="45.30639" lon="4.63561">
        <ele>569</ele>
        <time>2007-03-11T09:27:21Z</time>
      </trkpt>
      <trkpt lat="45.30616" lon="4.63561">
        <ele>571</ele>
        <time>2007-03-11T09:27:34Z</time>
      </trkpt>
      <trkpt lat="45.30588" lon="4.63561">
        <ele>574</ele>
        <time>2007-03-11T09:27:51Z</time>
      </trkpt>
      <trkpt lat="45.3056" lon="4.63561">
        <ele>575</ele>
        <time>2007-03-11T09:28:06Z</time>
      </trkpt>
      <trkpt lat="45.30549" lon="4.63561">
        <ele>575</ele>
        <time>2007-03-11T09:28:17Z</time>
      </trkpt>
      <trkpt lat="45.30543" lon="4.63563">
        <ele>576</ele>
        <time>2007-03-11T09:29:14Z</time>
      </trkpt>
      <trkpt lat="45.30513" lon="4.63561">
        <ele>576</ele>
        <time>2007-03-11T09:29:28Z</time>
      </trkpt>
      <trkpt lat="45.3047" lon="4.63554">
        <ele>575</ele>
        <time>2007-03-11T09:29:45Z</time>
      </trkpt>
      <trkpt lat="45.30436" lon="4.63552">
        <ele>575</ele>
        <time>2007-03-11T09:29:57Z</time>
      </trkpt>
      <trkpt lat="45.30406" lon="4.63533">
        <ele>575</ele>
        <time>2007-03-11T09:30:10Z</time>
      </trkpt>
      <trkpt lat="45.30406" lon="4.63529">
        <ele>575</ele>
        <time>2007-03-11T09:30:17Z</time>
      </trkpt>
      <trkpt lat="45.30406" lon="4.63529">
        <ele>575</ele>
        <time>2007-03-11T09:30:35Z</time>
      </trkpt>
      <trkpt lat="45.30406" lon="4.63529">
        <ele>577</ele>
        <time>2007-03-11T09:35:12Z</time>
      </trkpt>
      <trkpt lat="45.30408" lon="4.63529">
        <ele>577</ele>
        <time>2007-03-11T09:35:34Z</time>
      </trkpt>
      <trkpt lat="45.30393" lon="4.6352">
        <ele>573</ele>
        <time>2007-03-11T09:36:01Z</time>
      </trkpt>
      <trkpt lat="45.30378" lon="4.63511">
        <ele>571</ele>
        <time>2007-03-11T09:36:05Z</time>
      </trkpt>
      <trkpt lat="45.30343" lon="4.63503">
        <ele>569</ele>
        <time>2007-03-11T09:36:10Z</time>
      </trkpt>
      <trkpt lat="45.30251" lon="4.63529">
        <ele>566</ele>
        <time>2007-03-11T09:36:21Z</time>
      </trkpt>
      <trkpt lat="45.30221" lon="4.63546">
        <ele>566</ele>
        <time>2007-03-11T09:36:25Z</time>
      </trkpt>
      <trkpt lat="45.30148" lon="4.63561">
        <ele>565</ele>
        <time>2007-03-11T09:36:36Z</time>
      </trkpt>
      <trkpt lat="45.30082" lon="4.63569">
        <ele>563</ele>
        <time>2007-03-11T09:36:48Z</time>
      </trkpt>
      <trkpt lat="45.30021" lon="4.63552">
        <ele>563</ele>
        <time>2007-03-11T09:37:01Z</time>
      </trkpt>
      <trkpt lat="45.29994" lon="4.63535">
        <ele>563</ele>
        <time>2007-03-11T09:37:11Z</time>
      </trkpt>
      <trkpt lat="45.29991" lon="4.63529">
        <ele>563</ele>
        <time>2007-03-11T09:37:13Z</time>
      </trkpt>
      <trkpt lat="45.29979" lon="4.63535">
        <ele>562</ele>
        <time>2007-03-11T09:37:18Z</time>
      </trkpt>
      <trkpt lat="45.29925" lon="4.63563">
        <ele>557</ele>
        <time>2007-03-11T09:37:27Z</time>
      </trkpt>
      <trkpt lat="45.29843" lon="4.63621">
        <ele>552</ele>
        <time>2007-03-11T09:37:37Z</time>
      </trkpt>
      <trkpt lat="45.2974" lon="4.63694">
        <ele>547</ele>
        <time>2007-03-11T09:37:48Z</time>
      </trkpt>
      <trkpt lat="45.29695" lon="4.6373">
        <ele>545</ele>
        <time>2007-03-11T09:37:53Z</time>
      </trkpt>
      <trkpt lat="45.29659" lon="4.63756">
        <ele>545</ele>
        <time>2007-03-11T09:37:58Z</time>
      </trkpt>
      <trkpt lat="45.29627" lon="4.63784">
        <ele>545</ele>
        <time>2007-03-11T09:38:08Z</time>
      </trkpt>
      <trkpt lat="45.29588" lon="4.6381">
        <ele>544</ele>
        <time>2007-03-11T09:38:22Z</time>
      </trkpt>
      <trkpt lat="45.29549" lon="4.63829">
        <ele>544</ele>
        <time>2007-03-11T09:38:37Z</time>
      </trkpt>
      <trkpt lat="45.29521" lon="4.63846">
        <ele>548</ele>
        <time>2007-03-11T09:38:51Z</time>
      </trkpt>
      <trkpt lat="45.29479" lon="4.63876">
        <ele>549</ele>
        <time>2007-03-11T09:39:09Z</time>
      </trkpt>
      <trkpt lat="45.29436" lon="4.63904">
        <ele>546</ele>
        <time>2007-03-11T09:39:21Z</time>
      </trkpt>
      <trkpt lat="45.29401" lon="4.63921">
        <ele>543</ele>
        <time>2007-03-11T09:39:33Z</time>
      </trkpt>
      <trkpt lat="45.29382" lon="4.63919">
        <ele>543</ele>
        <time>2007-03-11T09:39:38Z</time>
      </trkpt>
      <trkpt lat="45.29373" lon="4.63917">
        <ele>543</ele>
        <time>2007-03-11T09:39:40Z</time>
      </trkpt>
      <trkpt lat="45.2935" lon="4.63898">
        <ele>543</ele>
        <time>2007-03-11T09:39:44Z</time>
      </trkpt>
      <trkpt lat="45.29268" lon="4.63818">
        <ele>540</ele>
        <time>2007-03-11T09:39:55Z</time>
      </trkpt>
      <trkpt lat="45.29202" lon="4.63765">
        <ele>537</ele>
        <time>2007-03-11T09:40:05Z</time>
      </trkpt>
      <trkpt lat="45.29127" lon="4.63707">
        <ele>534</ele>
        <time>2007-03-11T09:40:18Z</time>
      </trkpt>
      <trkpt lat="45.29058" lon="4.63645">
        <ele>528</ele>
        <time>2007-03-11T09:40:31Z</time>
      </trkpt>
      <trkpt lat="45.28981" lon="4.63597">
        <ele>525</ele>
        <time>2007-03-11T09:40:44Z</time>
      </trkpt>
      <trkpt lat="45.28903" lon="4.63576">
        <ele>516</ele>
        <time>2007-03-11T09:40:53Z</time>
      </trkpt>
      <trkpt lat="45.28773" lon="4.6355">
        <ele>502</ele>
        <time>2007-03-11T09:41:08Z</time>
      </trkpt>
      <trkpt lat="45.28717" lon="4.63539">
        <ele>494</ele>
        <time>2007-03-11T09:41:17Z</time>
      </trkpt>
      <trkpt lat="45.287" lon="4.63533">
        <ele>491</ele>
        <time>2007-03-11T09:41:21Z</time>
      </trkpt>
      <trkpt lat="45.28644" lon="4.63516">
        <ele>482</ele>
        <time>2007-03-11T09:41:33Z</time>
      </trkpt>
      <trkpt lat="45.28573" lon="4.63496">
        <ele>473</ele>
        <time>2007-03-11T09:41:43Z</time>
      </trkpt>
      <trkpt lat="45.28504" lon="4.63466">
        <ele>462</ele>
        <time>2007-03-11T09:41:52Z</time>
      </trkpt>
      <trkpt lat="45.28427" lon="4.63434">
        <ele>454</ele>
        <time>2007-03-11T09:42:01Z</time>
      </trkpt>
      <trkpt lat="45.28412" lon="4.63428">
        <ele>451</ele>
        <time>2007-03-11T09:42:03Z</time>
      </trkpt>
      <trkpt lat="45.28401" lon="4.63421">
        <ele>450</ele>
        <time>2007-03-11T09:42:05Z</time>
      </trkpt>
      <trkpt lat="45.28399" lon="4.63396">
        <ele>450</ele>
        <time>2007-03-11T09:42:10Z</time>
      </trkpt>
      <trkpt lat="45.28414" lon="4.63368">
        <ele>451</ele>
        <time>2007-03-11T09:42:24Z</time>
      </trkpt>
      <trkpt lat="45.28429" lon="4.63346">
        <ele>453</ele>
        <time>2007-03-11T09:42:38Z</time>
      </trkpt>
      <trkpt lat="45.2844" lon="4.63323">
        <ele>455</ele>
        <time>2007-03-11T09:42:51Z</time>
      </trkpt>
      <trkpt lat="45.28455" lon="4.63301">
        <ele>457</ele>
        <time>2007-03-11T09:43:05Z</time>
      </trkpt>
      <trkpt lat="45.28472" lon="4.63284">
        <ele>458</ele>
        <time>2007-03-11T09:43:19Z</time>
      </trkpt>
      <trkpt lat="45.28492" lon="4.63273">
        <ele>459</ele>
        <time>2007-03-11T09:43:32Z</time>
      </trkpt>
      <trkpt lat="45.28519" lon="4.63263">
        <ele>459</ele>
        <time>2007-03-11T09:43:45Z</time>
      </trkpt>
      <trkpt lat="45.28537" lon="4.63254">
        <ele>459</ele>
        <time>2007-03-11T09:43:55Z</time>
      </trkpt>
      <trkpt lat="45.28549" lon="4.63248">
        <ele>460</ele>
        <time>2007-03-11T09:44:07Z</time>
      </trkpt>
      <trkpt lat="45.28552" lon="4.63248">
        <ele>461</ele>
        <time>2007-03-11T09:44:21Z</time>
      </trkpt>
      <trkpt lat="45.28549" lon="4.63245">
        <ele>459</ele>
        <time>2007-03-11T09:44:44Z</time>
      </trkpt>
      <trkpt lat="45.28549" lon="4.63248">
        <ele>458</ele>
        <time>2007-03-11T09:46:30Z</time>
      </trkpt>
      <trkpt lat="45.2856" lon="4.63241">
        <ele>456</ele>
        <time>2007-03-11T09:47:28Z</time>
      </trkpt>
      <trkpt lat="45.2859" lon="4.63224">
        <ele>458</ele>
        <time>2007-03-11T09:47:41Z</time>
      </trkpt>
      <trkpt lat="45.28627" lon="4.63202">
        <ele>460</ele>
        <time>2007-03-11T09:47:57Z</time>
      </trkpt>
      <trkpt lat="45.28659" lon="4.63177">
        <ele>460</ele>
        <time>2007-03-11T09:48:13Z</time>
      </trkpt>
      <trkpt lat="45.28674" lon="4.63164">
        <ele>458</ele>
        <time>2007-03-11T09:48:19Z</time>
      </trkpt>
      <trkpt lat="45.2868" lon="4.63132">
        <ele>454</ele>
        <time>2007-03-11T09:48:25Z</time>
      </trkpt>
      <trkpt lat="45.28661" lon="4.63117">
        <ele>451</ele>
        <time>2007-03-11T09:48:30Z</time>
      </trkpt>
      <trkpt lat="45.28644" lon="4.63108">
        <ele>448</ele>
        <time>2007-03-11T09:48:32Z</time>
      </trkpt>
      <trkpt lat="45.28625" lon="4.63099">
        <ele>446</ele>
        <time>2007-03-11T09:48:34Z</time>
      </trkpt>
      <trkpt lat="45.28599" lon="4.63095">
        <ele>442</ele>
        <time>2007-03-11T09:48:38Z</time>
      </trkpt>
      <trkpt lat="45.28567" lon="4.63104">
        <ele>439</ele>
        <time>2007-03-11T09:48:44Z</time>
      </trkpt>
      <trkpt lat="45.28545" lon="4.6311">
        <ele>437</ele>
        <time>2007-03-11T09:48:52Z</time>
      </trkpt>
      <trkpt lat="45.28545" lon="4.63106">
        <ele>438</ele>
        <time>2007-03-11T09:48:54Z</time>
      </trkpt>
      <trkpt lat="45.28532" lon="4.63097">
        <ele>438</ele>
        <time>2007-03-11T09:49:01Z</time>
      </trkpt>
      <trkpt lat="45.2853" lon="4.63095">
        <ele>437</ele>
        <time>2007-03-11T09:49:02Z</time>
      </trkpt>
      <trkpt lat="45.28522" lon="4.63057">
        <ele>438</ele>
        <time>2007-03-11T09:49:12Z</time>
      </trkpt>
      <trkpt lat="45.28513" lon="4.63001">
        <ele>437</ele>
        <time>2007-03-11T09:49:22Z</time>
      </trkpt>
      <trkpt lat="45.28515" lon="4.62939">
        <ele>437</ele>
        <time>2007-03-11T09:49:36Z</time>
      </trkpt>
      <trkpt lat="45.28515" lon="4.62876">
        <ele>438</ele>
        <time>2007-03-11T09:49:49Z</time>
      </trkpt>
      <trkpt lat="45.28517" lon="4.62827">
        <ele>438</ele>
        <time>2007-03-11T09:50:04Z</time>
      </trkpt>
      <trkpt lat="45.28519" lon="4.62788">
        <ele>441</ele>
        <time>2007-03-11T09:50:18Z</time>
      </trkpt>
      <trkpt lat="45.28515" lon="4.62754">
        <ele>444</ele>
        <time>2007-03-11T09:50:32Z</time>
      </trkpt>
      <trkpt lat="45.28513" lon="4.62752">
        <ele>444</ele>
        <time>2007-03-11T09:50:34Z</time>
      </trkpt>
      <trkpt lat="45.28485" lon="4.62769">
        <ele>444</ele>
        <time>2007-03-11T09:50:50Z</time>
      </trkpt>
      <trkpt lat="45.28476" lon="4.62786">
        <ele>446</ele>
        <time>2007-03-11T09:51:01Z</time>
      </trkpt>
      <trkpt lat="45.28474" lon="4.62786">
        <ele>446</ele>
        <time>2007-03-11T09:51:03Z</time>
      </trkpt>
      <trkpt lat="45.28468" lon="4.62782">
        <ele>447</ele>
        <time>2007-03-11T09:51:08Z</time>
      </trkpt>
      <trkpt lat="45.28464" lon="4.6275">
        <ele>451</ele>
        <time>2007-03-11T09:51:24Z</time>
      </trkpt>
      <trkpt lat="45.28459" lon="4.62713">
        <ele>454</ele>
        <time>2007-03-11T09:51:40Z</time>
      </trkpt>
      <trkpt lat="45.28457" lon="4.62696">
        <ele>455</ele>
        <time>2007-03-11T09:51:49Z</time>
      </trkpt>
      <trkpt lat="45.28451" lon="4.62694">
        <ele>455</ele>
        <time>2007-03-11T09:51:54Z</time>
      </trkpt>
      <trkpt lat="45.28449" lon="4.62698">
        <ele>456</ele>
        <time>2007-03-11T09:51:58Z</time>
      </trkpt>
      <trkpt lat="45.28446" lon="4.62705">
        <ele>457</ele>
        <time>2007-03-11T09:52:04Z</time>
      </trkpt>
      <trkpt lat="45.28444" lon="4.62713">
        <ele>458</ele>
        <time>2007-03-11T09:52:09Z</time>
      </trkpt>
      <trkpt lat="45.28438" lon="4.6273">
        <ele>458</ele>
        <time>2007-03-11T09:52:20Z</time>
      </trkpt>
      <trkpt lat="45.2844" lon="4.62722">
        <ele>458</ele>
        <time>2007-03-11T09:52:25Z</time>
      </trkpt>
      <trkpt lat="45.28431" lon="4.62696">
        <ele>461</ele>
        <time>2007-03-11T09:52:38Z</time>
      </trkpt>
      <trkpt lat="45.28421" lon="4.62666">
        <ele>466</ele>
        <time>2007-03-11T09:52:57Z</time>
      </trkpt>
      <trkpt lat="45.28408" lon="4.62638">
        <ele>470</ele>
        <time>2007-03-11T09:53:16Z</time>
      </trkpt>
      <trkpt lat="45.28395" lon="4.62612">
        <ele>473</ele>
        <time>2007-03-11T09:53:33Z</time>
      </trkpt>
      <trkpt lat="45.2838" lon="4.62585">
        <ele>476</ele>
        <time>2007-03-11T09:53:52Z</time>
      </trkpt>
      <trkpt lat="45.2838" lon="4.62585">
        <ele>474</ele>
        <time>2007-03-11T09:54:04Z</time>
      </trkpt>
      <trkpt lat="45.2838" lon="4.62585">
        <ele>473</ele>
        <time>2007-03-11T09:54:13Z</time>
      </trkpt>
      <trkpt lat="45.28373" lon="4.62574">
        <ele>473</ele>
        <time>2007-03-11T09:54:18Z</time>
      </trkpt>
      <trkpt lat="45.28361" lon="4.62548">
        <ele>474</ele>
        <time>2007-03-11T09:54:34Z</time>
      </trkpt>
      <trkpt lat="45.28343" lon="4.62514">
        <ele>475</ele>
        <time>2007-03-11T09:54:50Z</time>
      </trkpt>
      <trkpt lat="45.28326" lon="4.62479">
        <ele>476</ele>
        <time>2007-03-11T09:55:05Z</time>
      </trkpt>
      <trkpt lat="45.28313" lon="4.62451">
        <ele>476</ele>
        <time>2007-03-11T09:55:17Z</time>
      </trkpt>
      <trkpt lat="45.28298" lon="4.62406">
        <ele>476</ele>
        <time>2007-03-11T09:55:31Z</time>
      </trkpt>
      <trkpt lat="45.28277" lon="4.62351">
        <ele>477</ele>
        <time>2007-03-11T09:55:46Z</time>
      </trkpt>
      <trkpt lat="45.2826" lon="4.62306">
        <ele>478</ele>
        <time>2007-03-11T09:55:59Z</time>
      </trkpt>
      <trkpt lat="45.28234" lon="4.6226">
        <ele>476</ele>
        <time>2007-03-11T09:56:11Z</time>
      </trkpt>
      <trkpt lat="45.28187" lon="4.62207">
        <ele>475</ele>
        <time>2007-03-11T09:56:27Z</time>
      </trkpt>
      <trkpt lat="45.28174" lon="4.62194">
        <ele>479</ele>
        <time>2007-03-11T09:56:37Z</time>
      </trkpt>
      <trkpt lat="45.28174" lon="4.62192">
        <ele>479</ele>
        <time>2007-03-11T09:56:45Z</time>
      </trkpt>
      <trkpt lat="45.28174" lon="4.6219">
        <ele>478</ele>
        <time>2007-03-11T09:56:52Z</time>
      </trkpt>
      <trkpt lat="45.28189" lon="4.62203">
        <ele>476</ele>
        <time>2007-03-11T09:56:59Z</time>
      </trkpt>
      <trkpt lat="45.28191" lon="4.62213">
        <ele>476</ele>
        <time>2007-03-11T09:57:01Z</time>
      </trkpt>
      <trkpt lat="45.28195" lon="4.62215">
        <ele>475</ele>
        <time>2007-03-11T09:57:04Z</time>
      </trkpt>
      <trkpt lat="45.28187" lon="4.6217">
        <ele>474</ele>
        <time>2007-03-11T09:57:14Z</time>
      </trkpt>
      <trkpt lat="45.28185" lon="4.62162">
        <ele>474</ele>
        <time>2007-03-11T09:57:15Z</time>
      </trkpt>
      <trkpt lat="45.28157" lon="4.62104">
        <ele>474</ele>
        <time>2007-03-11T09:57:26Z</time>
      </trkpt>
      <trkpt lat="45.2815" lon="4.62085">
        <ele>474</ele>
        <time>2007-03-11T09:57:30Z</time>
      </trkpt>
      <trkpt lat="45.28125" lon="4.62035">
        <ele>473</ele>
        <time>2007-03-11T09:57:42Z</time>
      </trkpt>
      <trkpt lat="45.28122" lon="4.62029">
        <ele>473</ele>
        <time>2007-03-11T09:57:50Z</time>
      </trkpt>
      <trkpt lat="45.28125" lon="4.62033">
        <ele>473</ele>
        <time>2007-03-11T09:58:00Z</time>
      </trkpt>
      <trkpt lat="45.28127" lon="4.62033">
        <ele>473</ele>
        <time>2007-03-11T09:58:06Z</time>
      </trkpt>
      <trkpt lat="45.28129" lon="4.62044">
        <ele>472</ele>
        <time>2007-03-11T09:58:10Z</time>
      </trkpt>
      <trkpt lat="45.28142" lon="4.62078">
        <ele>473</ele>
        <time>2007-03-11T09:58:20Z</time>
      </trkpt>
      <trkpt lat="45.28155" lon="4.62104">
        <ele>475</ele>
        <time>2007-03-11T09:58:29Z</time>
      </trkpt>
      <trkpt lat="45.2815" lon="4.62104">
        <ele>476</ele>
        <time>2007-03-11T09:58:37Z</time>
      </trkpt>
      <trkpt lat="45.2815" lon="4.62104">
        <ele>474</ele>
        <time>2007-03-11T09:58:57Z</time>
      </trkpt>
      <trkpt lat="45.2815" lon="4.6211">
        <ele>476</ele>
        <time>2007-03-11T09:59:44Z</time>
      </trkpt>
      <trkpt lat="45.28144" lon="4.62102">
        <ele>475</ele>
        <time>2007-03-11T09:59:54Z</time>
      </trkpt>
      <trkpt lat="45.28142" lon="4.62095">
        <ele>472</ele>
        <time>2007-03-11T10:00:31Z</time>
      </trkpt>
      <trkpt lat="45.2812" lon="4.62085">
        <ele>474</ele>
        <time>2007-03-11T10:00:44Z</time>
      </trkpt>
      <trkpt lat="45.28099" lon="4.62076">
        <ele>477</ele>
        <time>2007-03-11T10:01:00Z</time>
      </trkpt>
      <trkpt lat="45.28075" lon="4.62067">
        <ele>477</ele>
        <time>2007-03-11T10:01:14Z</time>
      </trkpt>
      <trkpt lat="45.28054" lon="4.62061">
        <ele>480</ele>
        <time>2007-03-11T10:01:31Z</time>
      </trkpt>
      <trkpt lat="45.28032" lon="4.62057">
        <ele>482</ele>
        <time>2007-03-11T10:01:46Z</time>
      </trkpt>
      <trkpt lat="45.28013" lon="4.62057">
        <ele>484</ele>
        <time>2007-03-11T10:02:01Z</time>
      </trkpt>
      <trkpt lat="45.27992" lon="4.6205">
        <ele>486</ele>
        <time>2007-03-11T10:02:18Z</time>
      </trkpt>
      <trkpt lat="45.27987" lon="4.62052">
        <ele>487</ele>
        <time>2007-03-11T10:02:25Z</time>
      </trkpt>
      <trkpt lat="45.27983" lon="4.6205">
        <ele>487</ele>
        <time>2007-03-11T10:02:31Z</time>
      </trkpt>
      <trkpt lat="45.27977" lon="4.62044">
        <ele>487</ele>
        <time>2007-03-11T10:02:43Z</time>
      </trkpt>
      <trkpt lat="45.27977" lon="4.62044">
        <ele>486</ele>
        <time>2007-03-11T10:02:52Z</time>
      </trkpt>
      <trkpt lat="45.27972" lon="4.62042">
        <ele>487</ele>
        <time>2007-03-11T10:03:02Z</time>
      </trkpt>
      <trkpt lat="45.27959" lon="4.62037">
        <ele>488</ele>
        <time>2007-03-11T10:03:13Z</time>
      </trkpt>
      <trkpt lat="45.27931" lon="4.62022">
        <ele>487</ele>
        <time>2007-03-11T10:03:26Z</time>
      </trkpt>
      <trkpt lat="45.27929" lon="4.62022">
        <ele>488</ele>
        <time>2007-03-11T10:03:38Z</time>
      </trkpt>
      <trkpt lat="45.27925" lon="4.62022">
        <ele>488</ele>
        <time>2007-03-11T10:03:47Z</time>
      </trkpt>
      <trkpt lat="45.27925" lon="4.62022">
        <ele>485</ele>
        <time>2007-03-11T10:03:56Z</time>
      </trkpt>
      <trkpt lat="45.27923" lon="4.6202">
        <ele>486</ele>
        <time>2007-03-11T10:04:04Z</time>
      </trkpt>
      <trkpt lat="45.27912" lon="4.62027">
        <ele>489</ele>
        <time>2007-03-11T10:04:16Z</time>
      </trkpt>
      <trkpt lat="45.2791" lon="4.62035">
        <ele>492</ele>
        <time>2007-03-11T10:04:23Z</time>
      </trkpt>
      <trkpt lat="45.27912" lon="4.62048">
        <ele>495</ele>
        <time>2007-03-11T10:04:34Z</time>
      </trkpt>
      <trkpt lat="45.2791" lon="4.62052">
        <ele>497</ele>
        <time>2007-03-11T10:04:40Z</time>
      </trkpt>
      <trkpt lat="45.27908" lon="4.62061">
        <ele>499</ele>
        <time>2007-03-11T10:04:49Z</time>
      </trkpt>
      <trkpt lat="45.27908" lon="4.62065">
        <ele>500</ele>
        <time>2007-03-11T10:04:59Z</time>
      </trkpt>
      <trkpt lat="45.27906" lon="4.62067">
        <ele>502</ele>
        <time>2007-03-11T10:05:16Z</time>
      </trkpt>
      <trkpt lat="45.27901" lon="4.62078">
        <ele>506</ele>
        <time>2007-03-11T10:05:47Z</time>
      </trkpt>
      <trkpt lat="45.27899" lon="4.62095">
        <ele>510</ele>
        <time>2007-03-11T10:06:06Z</time>
      </trkpt>
      <trkpt lat="45.27897" lon="4.62112">
        <ele>513</ele>
        <time>2007-03-11T10:06:22Z</time>
      </trkpt>
      <trkpt lat="45.27889" lon="4.62123">
        <ele>515</ele>
        <time>2007-03-11T10:06:37Z</time>
      </trkpt>
      <trkpt lat="45.27882" lon="4.62125">
        <ele>516</ele>
        <time>2007-03-11T10:06:49Z</time>
      </trkpt>
      <trkpt lat="45.27874" lon="4.62132">
        <ele>517</ele>
        <time>2007-03-11T10:07:02Z</time>
      </trkpt>
      <trkpt lat="45.27871" lon="4.62132">
        <ele>517</ele>
        <time>2007-03-11T10:07:04Z</time>
      </trkpt>
      <trkpt lat="45.27856" lon="4.6213">
        <ele>518</ele>
        <time>2007-03-11T10:07:20Z</time>
      </trkpt>
      <trkpt lat="45.27852" lon="4.62127">
        <ele>519</ele>
        <time>2007-03-11T10:07:34Z</time>
      </trkpt>
      <trkpt lat="45.27841" lon="4.62125">
        <ele>517</ele>
        <time>2007-03-11T10:08:32Z</time>
      </trkpt>
      <trkpt lat="45.27837" lon="4.62123">
        <ele>517</ele>
        <time>2007-03-11T10:08:37Z</time>
      </trkpt>
      <trkpt lat="45.27833" lon="4.62123">
        <ele>517</ele>
        <time>2007-03-11T10:08:48Z</time>
      </trkpt>
      <trkpt lat="45.27835" lon="4.62125">
        <ele>517</ele>
        <time>2007-03-11T10:09:13Z</time>
      </trkpt>
      <trkpt lat="45.27833" lon="4.62136">
        <ele>520</ele>
        <time>2007-03-11T10:09:21Z</time>
      </trkpt>
      <trkpt lat="45.27826" lon="4.62153">
        <ele>523</ele>
        <time>2007-03-11T10:09:36Z</time>
      </trkpt>
      <trkpt lat="45.27826" lon="4.62166">
        <ele>526</ele>
        <time>2007-03-11T10:09:49Z</time>
      </trkpt>
      <trkpt lat="45.27824" lon="4.62181">
        <ele>529</ele>
        <time>2007-03-11T10:10:07Z</time>
      </trkpt>
      <trkpt lat="45.27822" lon="4.62188">
        <ele>530</ele>
        <time>2007-03-11T10:10:16Z</time>
      </trkpt>
      <trkpt lat="45.27822" lon="4.6219">
        <ele>531</ele>
        <time>2007-03-11T10:10:23Z</time>
      </trkpt>
      <trkpt lat="45.2782" lon="4.62194">
        <ele>532</ele>
        <time>2007-03-11T10:10:35Z</time>
      </trkpt>
      <trkpt lat="45.27816" lon="4.622">
        <ele>533</ele>
        <time>2007-03-11T10:10:48Z</time>
      </trkpt>
      <trkpt lat="45.27811" lon="4.622">
        <ele>533</ele>
        <time>2007-03-11T10:11:05Z</time>
      </trkpt>
      <trkpt lat="45.27803" lon="4.62213">
        <ele>533</ele>
        <time>2007-03-11T10:11:19Z</time>
      </trkpt>
      <trkpt lat="45.27796" lon="4.62226">
        <ele>535</ele>
        <time>2007-03-11T10:11:34Z</time>
      </trkpt>
      <trkpt lat="45.2779" lon="4.62235">
        <ele>535</ele>
        <time>2007-03-11T10:11:43Z</time>
      </trkpt>
      <trkpt lat="45.27777" lon="4.62248">
        <ele>537</ele>
        <time>2007-03-11T10:11:58Z</time>
      </trkpt>
      <trkpt lat="45.27764" lon="4.6226">
        <ele>539</ele>
        <time>2007-03-11T10:12:16Z</time>
      </trkpt>
      <trkpt lat="45.27758" lon="4.62282">
        <ele>543</ele>
        <time>2007-03-11T10:12:34Z</time>
      </trkpt>
      <trkpt lat="45.27749" lon="4.62295">
        <ele>544</ele>
        <time>2007-03-11T10:12:47Z</time>
      </trkpt>
      <trkpt lat="45.2774" lon="4.62314">
        <ele>547</ele>
        <time>2007-03-11T10:13:03Z</time>
      </trkpt>
      <trkpt lat="45.27736" lon="4.62321">
        <ele>548</ele>
        <time>2007-03-11T10:13:17Z</time>
      </trkpt>
      <trkpt lat="45.27734" lon="4.62325">
        <ele>547</ele>
        <time>2007-03-11T10:13:51Z</time>
      </trkpt>
      <trkpt lat="45.27725" lon="4.62342">
        <ele>549</ele>
        <time>2007-03-11T10:14:06Z</time>
      </trkpt>
      <trkpt lat="45.27715" lon="4.62359">
        <ele>550</ele>
        <time>2007-03-11T10:14:22Z</time>
      </trkpt>
      <trkpt lat="45.27704" lon="4.62379">
        <ele>552</ele>
        <time>2007-03-11T10:14:40Z</time>
      </trkpt>
      <trkpt lat="45.27695" lon="4.62394">
        <ele>554</ele>
        <time>2007-03-11T10:14:55Z</time>
      </trkpt>
      <trkpt lat="45.2768" lon="4.62409">
        <ele>555</ele>
        <time>2007-03-11T10:15:12Z</time>
      </trkpt>
      <trkpt lat="45.27668" lon="4.62419">
        <ele>557</ele>
        <time>2007-03-11T10:15:27Z</time>
      </trkpt>
      <trkpt lat="45.27655" lon="4.62428">
        <ele>558</ele>
        <time>2007-03-11T10:15:42Z</time>
      </trkpt>
      <trkpt lat="45.27655" lon="4.62428">
        <ele>561</ele>
        <time>2007-03-11T10:16:17Z</time>
      </trkpt>
      <trkpt lat="45.27655" lon="4.6243">
        <ele>561</ele>
        <time>2007-03-11T10:16:37Z</time>
      </trkpt>
      <trkpt lat="45.27642" lon="4.6243">
        <ele>561</ele>
        <time>2007-03-11T10:16:51Z</time>
      </trkpt>
      <trkpt lat="45.27635" lon="4.62434">
        <ele>563</ele>
        <time>2007-03-11T10:17:00Z</time>
      </trkpt>
      <trkpt lat="45.27622" lon="4.62443">
        <ele>566</ele>
        <time>2007-03-11T10:17:17Z</time>
      </trkpt>
      <trkpt lat="45.27614" lon="4.62449">
        <ele>568</ele>
        <time>2007-03-11T10:17:32Z</time>
      </trkpt>
      <trkpt lat="45.27601" lon="4.62462">
        <ele>571</ele>
        <time>2007-03-11T10:17:49Z</time>
      </trkpt>
      <trkpt lat="45.2759" lon="4.62473">
        <ele>573</ele>
        <time>2007-03-11T10:18:07Z</time>
      </trkpt>
      <trkpt lat="45.27584" lon="4.62482">
        <ele>576</ele>
        <time>2007-03-11T10:18:24Z</time>
      </trkpt>
      <trkpt lat="45.27582" lon="4.62482">
        <ele>576</ele>
        <time>2007-03-11T10:18:47Z</time>
      </trkpt>
      <trkpt lat="45.2758" lon="4.62484">
        <ele>576</ele>
        <time>2007-03-11T10:18:54Z</time>
      </trkpt>
      <trkpt lat="45.2756" lon="4.62482">
        <ele>575</ele>
        <time>2007-03-11T10:19:12Z</time>
      </trkpt>
      <trkpt lat="45.27558" lon="4.62482">
        <ele>575</ele>
        <time>2007-03-11T10:19:15Z</time>
      </trkpt>
      <trkpt lat="45.27547" lon="4.62501">
        <ele>577</ele>
        <time>2007-03-11T10:19:34Z</time>
      </trkpt>
      <trkpt lat="45.27539" lon="4.62518">
        <ele>578</ele>
        <time>2007-03-11T10:19:50Z</time>
      </trkpt>
      <trkpt lat="45.27537" lon="4.62529">
        <ele>580</ele>
        <time>2007-03-11T10:20:03Z</time>
      </trkpt>
      <trkpt lat="45.27537" lon="4.62529">
        <ele>580</ele>
        <time>2007-03-11T10:20:15Z</time>
      </trkpt>
      <trkpt lat="45.27556" lon="4.62554">
        <ele>580</ele>
        <time>2007-03-11T10:20:29Z</time>
      </trkpt>
      <trkpt lat="45.27584" lon="4.62595">
        <ele>580</ele>
        <time>2007-03-11T10:20:45Z</time>
      </trkpt>
      <trkpt lat="45.27595" lon="4.62632">
        <ele>580</ele>
        <time>2007-03-11T10:20:56Z</time>
      </trkpt>
      <trkpt lat="45.27601" lon="4.62655">
        <ele>578</ele>
        <time>2007-03-11T10:21:00Z</time>
      </trkpt>
      <trkpt lat="45.2764" lon="4.62705">
        <ele>575</ele>
        <time>2007-03-11T10:21:09Z</time>
      </trkpt>
      <trkpt lat="45.277" lon="4.62748">
        <ele>571</ele>
        <time>2007-03-11T10:21:20Z</time>
      </trkpt>
      <trkpt lat="45.27713" lon="4.62763">
        <ele>569</ele>
        <time>2007-03-11T10:21:27Z</time>
      </trkpt>
      <trkpt lat="45.27715" lon="4.6276">
        <ele>571</ele>
        <time>2007-03-11T10:21:43Z</time>
      </trkpt>
      <trkpt lat="45.27717" lon="4.62763">
        <ele>573</ele>
        <time>2007-03-11T10:23:26Z</time>
      </trkpt>
      <trkpt lat="45.27713" lon="4.62758">
        <ele>572</ele>
        <time>2007-03-11T10:23:35Z</time>
      </trkpt>
      <trkpt lat="45.27695" lon="4.62743">
        <ele>573</ele>
        <time>2007-03-11T10:23:46Z</time>
      </trkpt>
      <trkpt lat="45.27676" lon="4.6273">
        <ele>574</ele>
        <time>2007-03-11T10:24:00Z</time>
      </trkpt>
      <trkpt lat="45.27655" lon="4.62715">
        <ele>575</ele>
        <time>2007-03-11T10:24:14Z</time>
      </trkpt>
      <trkpt lat="45.27629" lon="4.62692">
        <ele>576</ele>
        <time>2007-03-11T10:24:31Z</time>
      </trkpt>
      <trkpt lat="45.2761" lon="4.62668">
        <ele>579</ele>
        <time>2007-03-11T10:24:46Z</time>
      </trkpt>
      <trkpt lat="45.27597" lon="4.6264">
        <ele>582</ele>
        <time>2007-03-11T10:25:01Z</time>
      </trkpt>
      <trkpt lat="45.27592" lon="4.62627">
        <ele>584</ele>
        <time>2007-03-11T10:25:08Z</time>
      </trkpt>
      <trkpt lat="45.27584" lon="4.62627">
        <ele>584</ele>
        <time>2007-03-11T10:25:15Z</time>
      </trkpt>
      <trkpt lat="45.27552" lon="4.6264">
        <ele>585</ele>
        <time>2007-03-11T10:25:34Z</time>
      </trkpt>
      <trkpt lat="45.27522" lon="4.62653">
        <ele>587</ele>
        <time>2007-03-11T10:25:51Z</time>
      </trkpt>
      <trkpt lat="45.27494" lon="4.62664">
        <ele>590</ele>
        <time>2007-03-11T10:26:10Z</time>
      </trkpt>
      <trkpt lat="45.2747" lon="4.6267">
        <ele>592</ele>
        <time>2007-03-11T10:26:25Z</time>
      </trkpt>
      <trkpt lat="45.27453" lon="4.62672">
        <ele>593</ele>
        <time>2007-03-11T10:26:39Z</time>
      </trkpt>
      <trkpt lat="45.27434" lon="4.62666">
        <ele>595</ele>
        <time>2007-03-11T10:26:53Z</time>
      </trkpt>
      <trkpt lat="45.27404" lon="4.62657">
        <ele>600</ele>
        <time>2007-03-11T10:27:15Z</time>
      </trkpt>
      <trkpt lat="45.27399" lon="4.6266">
        <ele>601</ele>
        <time>2007-03-11T10:27:26Z</time>
      </trkpt>
      <trkpt lat="45.27399" lon="4.6266">
        <ele>601</ele>
        <time>2007-03-11T10:27:30Z</time>
      </trkpt>
      <trkpt lat="45.27395" lon="4.62683">
        <ele>602</ele>
        <time>2007-03-11T10:27:42Z</time>
      </trkpt>
      <trkpt lat="45.27386" lon="4.62722">
        <ele>600</ele>
        <time>2007-03-11T10:27:53Z</time>
      </trkpt>
      <trkpt lat="45.27359" lon="4.6276">
        <ele>600</ele>
        <time>2007-03-11T10:28:03Z</time>
      </trkpt>
      <trkpt lat="45.27346" lon="4.62786">
        <ele>599</ele>
        <time>2007-03-11T10:28:08Z</time>
      </trkpt>
      <trkpt lat="45.27335" lon="4.62827">
        <ele>598</ele>
        <time>2007-03-11T10:28:14Z</time>
      </trkpt>
      <trkpt lat="45.27322" lon="4.62868">
        <ele>598</ele>
        <time>2007-03-11T10:28:22Z</time>
      </trkpt>
      <trkpt lat="45.27309" lon="4.62872">
        <ele>599</ele>
        <time>2007-03-11T10:28:26Z</time>
      </trkpt>
      <trkpt lat="45.27288" lon="4.62885">
        <ele>599</ele>
        <time>2007-03-11T10:28:35Z</time>
      </trkpt>
      <trkpt lat="45.2729" lon="4.62947">
        <ele>600</ele>
        <time>2007-03-11T10:28:50Z</time>
      </trkpt>
      <trkpt lat="45.27275" lon="4.62992">
        <ele>603</ele>
        <time>2007-03-11T10:29:03Z</time>
      </trkpt>
      <trkpt lat="45.27264" lon="4.63033">
        <ele>603</ele>
        <time>2007-03-11T10:29:14Z</time>
      </trkpt>
      <trkpt lat="45.27243" lon="4.63061">
        <ele>605</ele>
        <time>2007-03-11T10:29:26Z</time>
      </trkpt>
      <trkpt lat="45.27221" lon="4.63069">
        <ele>606</ele>
        <time>2007-03-11T10:29:38Z</time>
      </trkpt>
      <trkpt lat="45.27221" lon="4.63069">
        <ele>605</ele>
        <time>2007-03-11T10:29:54Z</time>
      </trkpt>
      <trkpt lat="45.27206" lon="4.63082">
        <ele>604</ele>
        <time>2007-03-11T10:30:05Z</time>
      </trkpt>
      <trkpt lat="45.27185" lon="4.63121">
        <ele>599</ele>
        <time>2007-03-11T10:30:15Z</time>
      </trkpt>
      <trkpt lat="45.2717" lon="4.63157">
        <ele>595</ele>
        <time>2007-03-11T10:30:21Z</time>
      </trkpt>
      <trkpt lat="45.27148" lon="4.63175">
        <ele>592</ele>
        <time>2007-03-11T10:30:25Z</time>
      </trkpt>
      <trkpt lat="45.27054" lon="4.63239">
        <ele>588</ele>
        <time>2007-03-11T10:30:35Z</time>
      </trkpt>
      <trkpt lat="45.27045" lon="4.63245">
        <ele>588</ele>
        <time>2007-03-11T10:30:36Z</time>
      </trkpt>
      <trkpt lat="45.27" lon="4.63237">
        <ele>587</ele>
        <time>2007-03-11T10:30:41Z</time>
      </trkpt>
      <trkpt lat="45.26966" lon="4.63187">
        <ele>581</ele>
        <time>2007-03-11T10:30:47Z</time>
      </trkpt>
      <trkpt lat="45.26925" lon="4.63134">
        <ele>577</ele>
        <time>2007-03-11T10:30:53Z</time>
      </trkpt>
      <trkpt lat="45.26917" lon="4.63125">
        <ele>576</ele>
        <time>2007-03-11T10:30:57Z</time>
      </trkpt>
      <trkpt lat="45.26917" lon="4.63125">
        <ele>575</ele>
        <time>2007-03-11T10:31:10Z</time>
      </trkpt>
      <trkpt lat="45.26908" lon="4.63121">
        <ele>575</ele>
        <time>2007-03-11T10:31:14Z</time>
      </trkpt>
      <trkpt lat="45.26871" lon="4.6308">
        <ele>573</ele>
        <time>2007-03-11T10:31:28Z</time>
      </trkpt>
      <trkpt lat="45.26837" lon="4.63031">
        <ele>573</ele>
        <time>2007-03-11T10:31:41Z</time>
      </trkpt>
      <trkpt lat="45.26816" lon="4.62992">
        <ele>574</ele>
        <time>2007-03-11T10:31:53Z</time>
      </trkpt>
      <trkpt lat="45.2679" lon="4.62958">
        <ele>572</ele>
        <time>2007-03-11T10:32:05Z</time>
      </trkpt>
      <trkpt lat="45.26786" lon="4.62954">
        <ele>572</ele>
        <time>2007-03-11T10:32:06Z</time>
      </trkpt>
      <trkpt lat="45.26741" lon="4.62928">
        <ele>569</ele>
        <time>2007-03-11T10:32:14Z</time>
      </trkpt>
      <trkpt lat="45.26704" lon="4.62893">
        <ele>566</ele>
        <time>2007-03-11T10:32:21Z</time>
      </trkpt>
      <trkpt lat="45.267" lon="4.62889">
        <ele>565</ele>
        <time>2007-03-11T10:32:23Z</time>
      </trkpt>
      <trkpt lat="45.26693" lon="4.62909">
        <ele>562</ele>
        <time>2007-03-11T10:32:30Z</time>
      </trkpt>
      <trkpt lat="45.26698" lon="4.62915">
        <ele>561</ele>
        <time>2007-03-11T10:32:33Z</time>
      </trkpt>
      <trkpt lat="45.26704" lon="4.62943">
        <ele>558</ele>
        <time>2007-03-11T10:32:40Z</time>
      </trkpt>
      <trkpt lat="45.26715" lon="4.62992">
        <ele>554</ele>
        <time>2007-03-11T10:32:47Z</time>
      </trkpt>
      <trkpt lat="45.26721" lon="4.6302">
        <ele>551</ele>
        <time>2007-03-11T10:32:50Z</time>
      </trkpt>
      <trkpt lat="45.26783" lon="4.63149">
        <ele>547</ele>
        <time>2007-03-11T10:33:04Z</time>
      </trkpt>
      <trkpt lat="45.26835" lon="4.63205">
        <ele>545</ele>
        <time>2007-03-11T10:33:14Z</time>
      </trkpt>
      <trkpt lat="45.26848" lon="4.63237">
        <ele>545</ele>
        <time>2007-03-11T10:33:19Z</time>
      </trkpt>
      <trkpt lat="45.26861" lon="4.63286">
        <ele>546</ele>
        <time>2007-03-11T10:33:30Z</time>
      </trkpt>
      <trkpt lat="45.2688" lon="4.6334">
        <ele>547</ele>
        <time>2007-03-11T10:33:45Z</time>
      </trkpt>
      <trkpt lat="45.26899" lon="4.63378">
        <ele>547</ele>
        <time>2007-03-11T10:33:58Z</time>
      </trkpt>
      <trkpt lat="45.26919" lon="4.63404">
        <ele>547</ele>
        <time>2007-03-11T10:34:09Z</time>
      </trkpt>
      <trkpt lat="45.26947" lon="4.63445">
        <ele>547</ele>
        <time>2007-03-11T10:34:25Z</time>
      </trkpt>
      <trkpt lat="45.26972" lon="4.63496">
        <ele>544</ele>
        <time>2007-03-11T10:34:37Z</time>
      </trkpt>
      <trkpt lat="45.27002" lon="4.63565">
        <ele>540</ele>
        <time>2007-03-11T10:34:47Z</time>
      </trkpt>
      <trkpt lat="45.2705" lon="4.63664">
        <ele>535</ele>
        <time>2007-03-11T10:34:58Z</time>
      </trkpt>
      <trkpt lat="45.27058" lon="4.63681">
        <ele>534</ele>
        <time>2007-03-11T10:35:00Z</time>
      </trkpt>
      <trkpt lat="45.27073" lon="4.63698">
        <ele>534</ele>
        <time>2007-03-11T10:35:03Z</time>
      </trkpt>
      <trkpt lat="45.27129" lon="4.63775">
        <ele>529</ele>
        <time>2007-03-11T10:35:14Z</time>
      </trkpt>
      <trkpt lat="45.27144" lon="4.63835">
        <ele>526</ele>
        <time>2007-03-11T10:35:19Z</time>
      </trkpt>
      <trkpt lat="45.27146" lon="4.63861">
        <ele>526</ele>
        <time>2007-03-11T10:35:21Z</time>
      </trkpt>
      <trkpt lat="45.2715" lon="4.639">
        <ele>524</ele>
        <time>2007-03-11T10:35:24Z</time>
      </trkpt>
      <trkpt lat="45.27148" lon="4.63996">
        <ele>517</ele>
        <time>2007-03-11T10:35:32Z</time>
      </trkpt>
      <trkpt lat="45.27138" lon="4.64061">
        <ele>516</ele>
        <time>2007-03-11T10:35:37Z</time>
      </trkpt>
      <trkpt lat="45.2712" lon="4.64102">
        <ele>514</ele>
        <time>2007-03-11T10:35:41Z</time>
      </trkpt>
      <trkpt lat="45.27114" lon="4.64121">
        <ele>513</ele>
        <time>2007-03-11T10:35:43Z</time>
      </trkpt>
      <trkpt lat="45.2711" lon="4.64138">
        <ele>513</ele>
        <time>2007-03-11T10:35:45Z</time>
      </trkpt>
      <trkpt lat="45.27103" lon="4.64164">
        <ele>512</ele>
        <time>2007-03-11T10:35:48Z</time>
      </trkpt>
      <trkpt lat="45.27101" lon="4.64181">
        <ele>511</ele>
        <time>2007-03-11T10:35:50Z</time>
      </trkpt>
      <trkpt lat="45.27116" lon="4.64217">
        <ele>508</ele>
        <time>2007-03-11T10:35:55Z</time>
      </trkpt>
      <trkpt lat="45.27157" lon="4.64316">
        <ele>505</ele>
        <time>2007-03-11T10:36:09Z</time>
      </trkpt>
      <trkpt lat="45.27161" lon="4.64323">
        <ele>505</ele>
        <time>2007-03-11T10:36:10Z</time>
      </trkpt>
      <trkpt lat="45.27133" lon="4.64359">
        <ele>500</ele>
        <time>2007-03-11T10:36:16Z</time>
      </trkpt>
      <trkpt lat="45.27129" lon="4.64363">
        <ele>499</ele>
        <time>2007-03-11T10:36:17Z</time>
      </trkpt>
      <trkpt lat="45.27129" lon="4.64378">
        <ele>494</ele>
        <time>2007-03-11T10:36:22Z</time>
      </trkpt>
      <trkpt lat="45.27138" lon="4.64381">
        <ele>488</ele>
        <time>2007-03-11T10:36:29Z</time>
      </trkpt>
      <trkpt lat="45.27153" lon="4.64385">
        <ele>480</ele>
        <time>2007-03-11T10:36:38Z</time>
      </trkpt>
      <trkpt lat="45.27155" lon="4.64385">
        <ele>479</ele>
        <time>2007-03-11T10:36:40Z</time>
      </trkpt>
      <trkpt lat="45.27144" lon="4.64376">
        <ele>476</ele>
        <time>2007-03-11T10:36:46Z</time>
      </trkpt>
      <trkpt lat="45.27142" lon="4.64374">
        <ele>475</ele>
        <time>2007-03-11T10:36:48Z</time>
      </trkpt>
      <trkpt lat="45.2714" lon="4.64378">
        <ele>473</ele>
        <time>2007-03-11T10:36:52Z</time>
      </trkpt>
      <trkpt lat="45.27131" lon="4.64428">
        <ele>468</ele>
        <time>2007-03-11T10:36:58Z</time>
      </trkpt>
      <trkpt lat="45.27118" lon="4.64479">
        <ele>461</ele>
        <time>2007-03-11T10:37:04Z</time>
      </trkpt>
      <trkpt lat="45.27105" lon="4.64503">
        <ele>458</ele>
        <time>2007-03-11T10:37:08Z</time>
      </trkpt>
      <trkpt lat="45.27073" lon="4.64522">
        <ele>451</ele>
        <time>2007-03-11T10:37:15Z</time>
      </trkpt>
      <trkpt lat="45.27069" lon="4.64533">
        <ele>445</ele>
        <time>2007-03-11T10:37:22Z</time>
      </trkpt>
      <trkpt lat="45.27069" lon="4.64533">
        <ele>439</ele>
        <time>2007-03-11T10:37:40Z</time>
      </trkpt>
      <trkpt lat="45.27077" lon="4.64544">
        <ele>437</ele>
        <time>2007-03-11T10:37:45Z</time>
      </trkpt>
      <trkpt lat="45.2709" lon="4.64554">
        <ele>437</ele>
        <time>2007-03-11T10:37:48Z</time>
      </trkpt>
      <trkpt lat="45.27153" lon="4.64591">
        <ele>434</ele>
        <time>2007-03-11T10:37:58Z</time>
      </trkpt>
      <trkpt lat="45.27172" lon="4.64589">
        <ele>432</ele>
        <time>2007-03-11T10:38:02Z</time>
      </trkpt>
      <trkpt lat="45.2717" lon="4.64599">
        <ele>430</ele>
        <time>2007-03-11T10:38:07Z</time>
      </trkpt>
      <trkpt lat="45.27114" lon="4.6461">
        <ele>426</ele>
        <time>2007-03-11T10:38:21Z</time>
      </trkpt>
      <trkpt lat="45.27065" lon="4.64623">
        <ele>423</ele>
        <time>2007-03-11T10:38:30Z</time>
      </trkpt>
      <trkpt lat="45.27035" lon="4.64606">
        <ele>423</ele>
        <time>2007-03-11T10:38:36Z</time>
      </trkpt>
      <trkpt lat="45.27004" lon="4.64571">
        <ele>424</ele>
        <time>2007-03-11T10:38:46Z</time>
      </trkpt>
      <trkpt lat="45.26989" lon="4.64587">
        <ele>422</ele>
        <time>2007-03-11T10:38:51Z</time>
      </trkpt>
      <trkpt lat="45.26987" lon="4.64593">
        <ele>422</ele>
        <time>2007-03-11T10:38:52Z</time>
      </trkpt>
      <trkpt lat="45.26974" lon="4.64629">
        <ele>421</ele>
        <time>2007-03-11T10:38:57Z</time>
      </trkpt>
      <trkpt lat="45.26981" lon="4.64659">
        <ele>420</ele>
        <time>2007-03-11T10:39:03Z</time>
      </trkpt>
      <trkpt lat="45.26998" lon="4.64683">
        <ele>419</ele>
        <time>2007-03-11T10:39:08Z</time>
      </trkpt>
      <trkpt lat="45.27024" lon="4.64754">
        <ele>418</ele>
        <time>2007-03-11T10:39:19Z</time>
      </trkpt>
      <trkpt lat="45.27035" lon="4.64782">
        <ele>418</ele>
        <time>2007-03-11T10:39:23Z</time>
      </trkpt>
      <trkpt lat="45.27043" lon="4.64842">
        <ele>417</ele>
        <time>2007-03-11T10:39:33Z</time>
      </trkpt>
      <trkpt lat="45.27043" lon="4.649">
        <ele>418</ele>
        <time>2007-03-11T10:39:44Z</time>
      </trkpt>
      <trkpt lat="45.27013" lon="4.64949">
        <ele>419</ele>
        <time>2007-03-11T10:39:56Z</time>
      </trkpt>
      <trkpt lat="45.26947" lon="4.65024">
        <ele>417</ele>
        <time>2007-03-11T10:40:19Z</time>
      </trkpt>
      <trkpt lat="45.26925" lon="4.65056">
        <ele>415</ele>
        <time>2007-03-11T10:40:32Z</time>
      </trkpt>
      <trkpt lat="45.26925" lon="4.65059">
        <ele>415</ele>
        <time>2007-03-11T10:40:49Z</time>
      </trkpt>
      <trkpt lat="45.26914" lon="4.65091">
        <ele>415</ele>
        <time>2007-03-11T10:41:02Z</time>
      </trkpt>
      <trkpt lat="45.26904" lon="4.65125">
        <ele>415</ele>
        <time>2007-03-11T10:41:13Z</time>
      </trkpt>
      <trkpt lat="45.26899" lon="4.65136">
        <ele>414</ele>
        <time>2007-03-11T10:42:23Z</time>
      </trkpt>
      <trkpt lat="45.26893" lon="4.65177">
        <ele>415</ele>
        <time>2007-03-11T10:42:37Z</time>
      </trkpt>
      <trkpt lat="45.26889" lon="4.65247">
        <ele>414</ele>
        <time>2007-03-11T10:42:49Z</time>
      </trkpt>
      <trkpt lat="45.26886" lon="4.65256">
        <ele>414</ele>
        <time>2007-03-11T10:42:51Z</time>
      </trkpt>
      <trkpt lat="45.26889" lon="4.65267">
        <ele>414</ele>
        <time>2007-03-11T10:43:02Z</time>
      </trkpt>
      <trkpt lat="45.26895" lon="4.65297">
        <ele>417</ele>
        <time>2007-03-11T10:43:19Z</time>
      </trkpt>
      <trkpt lat="45.26899" lon="4.65359">
        <ele>416</ele>
        <time>2007-03-11T10:43:34Z</time>
      </trkpt>
      <trkpt lat="45.26901" lon="4.65417">
        <ele>414</ele>
        <time>2007-03-11T10:43:48Z</time>
      </trkpt>
      <trkpt lat="45.26904" lon="4.65477">
        <ele>412</ele>
        <time>2007-03-11T10:44:03Z</time>
      </trkpt>
      <trkpt lat="45.26904" lon="4.65516">
        <ele>412</ele>
        <time>2007-03-11T10:44:15Z</time>
      </trkpt>
      <trkpt lat="45.26908" lon="4.65578">
        <ele>414</ele>
        <time>2007-03-11T10:44:31Z</time>
      </trkpt>
      <trkpt lat="45.26919" lon="4.6564">
        <ele>411</ele>
        <time>2007-03-11T10:44:48Z</time>
      </trkpt>
      <trkpt lat="45.26932" lon="4.65683">
        <ele>411</ele>
        <time>2007-03-11T10:45:03Z</time>
      </trkpt>
      <trkpt lat="45.26949" lon="4.65747">
        <ele>411</ele>
        <time>2007-03-11T10:45:23Z</time>
      </trkpt>
      <trkpt lat="45.26953" lon="4.65771">
        <ele>412</ele>
        <time>2007-03-11T10:45:32Z</time>
      </trkpt>
      <trkpt lat="45.26959" lon="4.65807">
        <ele>413</ele>
        <time>2007-03-11T10:45:45Z</time>
      </trkpt>
      <trkpt lat="45.26964" lon="4.65853">
        <ele>414</ele>
        <time>2007-03-11T10:45:58Z</time>
      </trkpt>
      <trkpt lat="45.26962" lon="4.659">
        <ele>415</ele>
        <time>2007-03-11T10:46:10Z</time>
      </trkpt>
      <trkpt lat="45.26953" lon="4.65956">
        <ele>415</ele>
        <time>2007-03-11T10:46:23Z</time>
      </trkpt>
      <trkpt lat="45.26951" lon="4.66016">
        <ele>415</ele>
        <time>2007-03-11T10:46:37Z</time>
      </trkpt>
      <trkpt lat="45.26964" lon="4.66022">
        <ele>417</ele>
        <time>2007-03-11T10:46:46Z</time>
      </trkpt>
      <trkpt lat="45.26974" lon="4.66026">
        <ele>419</ele>
        <time>2007-03-11T10:46:56Z</time>
      </trkpt>
      <trkpt lat="45.26992" lon="4.66033">
        <ele>420</ele>
        <time>2007-03-11T10:47:11Z</time>
      </trkpt>
      <trkpt lat="45.27009" lon="4.66054">
        <ele>421</ele>
        <time>2007-03-11T10:47:27Z</time>
      </trkpt>
      <trkpt lat="45.27011" lon="4.66084">
        <ele>423</ele>
        <time>2007-03-11T10:47:42Z</time>
      </trkpt>
      <trkpt lat="45.27009" lon="4.66121">
        <ele>425</ele>
        <time>2007-03-11T10:47:59Z</time>
      </trkpt>
      <trkpt lat="45.27009" lon="4.66144">
        <ele>425</ele>
        <time>2007-03-11T10:48:09Z</time>
      </trkpt>
      <trkpt lat="45.27009" lon="4.66164">
        <ele>426</ele>
        <time>2007-03-11T10:48:20Z</time>
      </trkpt>
      <trkpt lat="45.27013" lon="4.66198">
        <ele>426</ele>
        <time>2007-03-11T10:48:35Z</time>
      </trkpt>
      <trkpt lat="45.27026" lon="4.66232">
        <ele>427</ele>
        <time>2007-03-11T10:48:50Z</time>
      </trkpt>
      <trkpt lat="45.2703" lon="4.66254">
        <ele>428</ele>
        <time>2007-03-11T10:49:02Z</time>
      </trkpt>
      <trkpt lat="45.27035" lon="4.66269">
        <ele>430</ele>
        <time>2007-03-11T10:49:14Z</time>
      </trkpt>
      <trkpt lat="45.27037" lon="4.66292">
        <ele>433</ele>
        <time>2007-03-11T10:49:30Z</time>
      </trkpt>
      <trkpt lat="45.27037" lon="4.66301">
        <ele>433</ele>
        <time>2007-03-11T10:49:36Z</time>
      </trkpt>
      <trkpt lat="45.27039" lon="4.66307">
        <ele>433</ele>
        <time>2007-03-11T10:49:40Z</time>
      </trkpt>
      <trkpt lat="45.27039" lon="4.66314">
        <ele>434</ele>
        <time>2007-03-11T10:49:45Z</time>
      </trkpt>
      <trkpt lat="45.27043" lon="4.6634">
        <ele>437</ele>
        <time>2007-03-11T10:50:02Z</time>
      </trkpt>
      <trkpt lat="45.27041" lon="4.66361">
        <ele>438</ele>
        <time>2007-03-11T10:50:15Z</time>
      </trkpt>
      <trkpt lat="45.27041" lon="4.66385">
        <ele>440</ele>
        <time>2007-03-11T10:50:28Z</time>
      </trkpt>
      <trkpt lat="45.27041" lon="4.6641">
        <ele>441</ele>
        <time>2007-03-11T10:50:41Z</time>
      </trkpt>
      <trkpt lat="45.27039" lon="4.66445">
        <ele>442</ele>
        <time>2007-03-11T10:50:55Z</time>
      </trkpt>
      <trkpt lat="45.27035" lon="4.66481">
        <ele>442</ele>
        <time>2007-03-11T10:51:10Z</time>
      </trkpt>
      <trkpt lat="45.27028" lon="4.66513">
        <ele>442</ele>
        <time>2007-03-11T10:51:23Z</time>
      </trkpt>
      <trkpt lat="45.27024" lon="4.66541">
        <ele>446</ele>
        <time>2007-03-11T10:51:34Z</time>
      </trkpt>
      <trkpt lat="45.27032" lon="4.66576">
        <ele>446</ele>
        <time>2007-03-11T10:51:45Z</time>
      </trkpt>
      <trkpt lat="45.27045" lon="4.66604">
        <ele>446</ele>
        <time>2007-03-11T10:51:59Z</time>
      </trkpt>
      <trkpt lat="45.27052" lon="4.66599">
        <ele>447</ele>
        <time>2007-03-11T10:52:03Z</time>
      </trkpt>
      <trkpt lat="45.27062" lon="4.66595">
        <ele>447</ele>
        <time>2007-03-11T10:52:10Z</time>
      </trkpt>
      <trkpt lat="45.27069" lon="4.66591">
        <ele>447</ele>
        <time>2007-03-11T10:52:14Z</time>
      </trkpt>
      <trkpt lat="45.27071" lon="4.66586">
        <ele>447</ele>
        <time>2007-03-11T10:52:16Z</time>
      </trkpt>
      <trkpt lat="45.27095" lon="4.66548">
        <ele>449</ele>
        <time>2007-03-11T10:52:34Z</time>
      </trkpt>
      <trkpt lat="45.27103" lon="4.66546">
        <ele>450</ele>
        <time>2007-03-11T10:52:43Z</time>
      </trkpt>
      <trkpt lat="45.27103" lon="4.66543">
        <ele>453</ele>
        <time>2007-03-11T10:52:56Z</time>
      </trkpt>
      <trkpt lat="45.2712" lon="4.66537">
        <ele>454</ele>
        <time>2007-03-11T10:53:07Z</time>
      </trkpt>
      <trkpt lat="45.2712" lon="4.66535">
        <ele>453</ele>
        <time>2007-03-11T10:53:09Z</time>
      </trkpt>
      <trkpt lat="45.27129" lon="4.66526">
        <ele>452</ele>
        <time>2007-03-11T10:53:16Z</time>
      </trkpt>
      <trkpt lat="45.2714" lon="4.66492">
        <ele>455</ele>
        <time>2007-03-11T10:53:29Z</time>
      </trkpt>
      <trkpt lat="45.27155" lon="4.66477">
        <ele>460</ele>
        <time>2007-03-11T10:53:43Z</time>
      </trkpt>
      <trkpt lat="45.27157" lon="4.66475">
        <ele>460</ele>
        <time>2007-03-11T10:53:46Z</time>
      </trkpt>
      <trkpt lat="45.27161" lon="4.66473">
        <ele>462</ele>
        <time>2007-03-11T10:54:00Z</time>
      </trkpt>
      <trkpt lat="45.27172" lon="4.66462">
        <ele>461</ele>
        <time>2007-03-11T10:54:13Z</time>
      </trkpt>
      <trkpt lat="45.27185" lon="4.66449">
        <ele>463</ele>
        <time>2007-03-11T10:54:31Z</time>
      </trkpt>
      <trkpt lat="45.272" lon="4.6644">
        <ele>467</ele>
        <time>2007-03-11T10:54:46Z</time>
      </trkpt>
      <trkpt lat="45.27213" lon="4.66432">
        <ele>470</ele>
        <time>2007-03-11T10:55:00Z</time>
      </trkpt>
      <trkpt lat="45.2723" lon="4.6643">
        <ele>472</ele>
        <time>2007-03-11T10:55:16Z</time>
      </trkpt>
      <trkpt lat="45.27234" lon="4.66428">
        <ele>473</ele>
        <time>2007-03-11T10:55:23Z</time>
      </trkpt>
      <trkpt lat="45.2723" lon="4.66434">
        <ele>471</ele>
        <time>2007-03-11T10:55:30Z</time>
      </trkpt>
      <trkpt lat="45.2723" lon="4.66434">
        <ele>472</ele>
        <time>2007-03-11T10:55:39Z</time>
      </trkpt>
      <trkpt lat="45.27249" lon="4.66428">
        <ele>475</ele>
        <time>2007-03-11T10:55:51Z</time>
      </trkpt>
      <trkpt lat="45.27271" lon="4.66423">
        <ele>478</ele>
        <time>2007-03-11T10:56:04Z</time>
      </trkpt>
      <trkpt lat="45.2729" lon="4.66421">
        <ele>480</ele>
        <time>2007-03-11T10:56:22Z</time>
      </trkpt>
      <trkpt lat="45.27303" lon="4.66419">
        <ele>482</ele>
        <time>2007-03-11T10:56:36Z</time>
      </trkpt>
      <trkpt lat="45.27309" lon="4.66421">
        <ele>484</ele>
        <time>2007-03-11T10:56:43Z</time>
      </trkpt>
      <trkpt lat="45.27324" lon="4.66419">
        <ele>487</ele>
        <time>2007-03-11T10:56:58Z</time>
      </trkpt>
      <trkpt lat="45.27331" lon="4.66419">
        <ele>488</ele>
        <time>2007-03-11T10:57:04Z</time>
      </trkpt>
      <trkpt lat="45.27348" lon="4.66417">
        <ele>490</ele>
        <time>2007-03-11T10:57:20Z</time>
      </trkpt>
      <trkpt lat="45.27361" lon="4.66415">
        <ele>490</ele>
        <time>2007-03-11T10:57:33Z</time>
      </trkpt>
      <trkpt lat="45.27378" lon="4.66415">
        <ele>492</ele>
        <time>2007-03-11T10:57:48Z</time>
      </trkpt>
      <trkpt lat="45.27395" lon="4.66413">
        <ele>494</ele>
        <time>2007-03-11T10:58:04Z</time>
      </trkpt>
      <trkpt lat="45.27412" lon="4.66413">
        <ele>496</ele>
        <time>2007-03-11T10:58:19Z</time>
      </trkpt>
      <trkpt lat="45.27436" lon="4.6641">
        <ele>498</ele>
        <time>2007-03-11T10:58:39Z</time>
      </trkpt>
      <trkpt lat="45.27442" lon="4.66408">
        <ele>498</ele>
        <time>2007-03-11T10:58:45Z</time>
      </trkpt>
      <trkpt lat="45.27442" lon="4.66387">
        <ele>499</ele>
        <time>2007-03-11T10:58:57Z</time>
      </trkpt>
      <trkpt lat="45.27442" lon="4.6638">
        <ele>498</ele>
        <time>2007-03-11T10:59:01Z</time>
      </trkpt>
      <trkpt lat="45.2744" lon="4.6635">
        <ele>498</ele>
        <time>2007-03-11T10:59:15Z</time>
      </trkpt>
      <trkpt lat="45.2744" lon="4.66303">
        <ele>497</ele>
        <time>2007-03-11T10:59:25Z</time>
      </trkpt>
      <trkpt lat="45.27444" lon="4.66243">
        <ele>496</ele>
        <time>2007-03-11T10:59:37Z</time>
      </trkpt>
      <trkpt lat="45.27447" lon="4.66213">
        <ele>495</ele>
        <time>2007-03-11T10:59:46Z</time>
      </trkpt>
      <trkpt lat="45.27447" lon="4.66172">
        <ele>492</ele>
        <time>2007-03-11T10:59:55Z</time>
      </trkpt>
      <trkpt lat="45.27442" lon="4.66134">
        <ele>488</ele>
        <time>2007-03-11T11:00:00Z</time>
      </trkpt>
      <trkpt lat="45.27425" lon="4.66063">
        <ele>484</ele>
        <time>2007-03-11T11:00:06Z</time>
      </trkpt>
      <trkpt lat="45.27427" lon="4.66026">
        <ele>482</ele>
        <time>2007-03-11T11:00:12Z</time>
      </trkpt>
      <trkpt lat="45.27431" lon="4.66022">
        <ele>483</ele>
        <time>2007-03-11T11:00:14Z</time>
      </trkpt>
      <trkpt lat="45.27453" lon="4.66018">
        <ele>484</ele>
        <time>2007-03-11T11:00:25Z</time>
      </trkpt>
      <trkpt lat="45.27457" lon="4.66024">
        <ele>485</ele>
        <time>2007-03-11T11:00:31Z</time>
      </trkpt>
      <trkpt lat="45.2747" lon="4.66041">
        <ele>486</ele>
        <time>2007-03-11T11:00:45Z</time>
      </trkpt>
      <trkpt lat="45.27477" lon="4.66048">
        <ele>487</ele>
        <time>2007-03-11T11:00:53Z</time>
      </trkpt>
      <trkpt lat="45.27485" lon="4.66056">
        <ele>487</ele>
        <time>2007-03-11T11:01:02Z</time>
      </trkpt>
      <trkpt lat="45.27496" lon="4.66069">
        <ele>489</ele>
        <time>2007-03-11T11:01:15Z</time>
      </trkpt>
      <trkpt lat="45.27502" lon="4.66074">
        <ele>489</ele>
        <time>2007-03-11T11:01:21Z</time>
      </trkpt>
      <trkpt lat="45.27515" lon="4.66082">
        <ele>491</ele>
        <time>2007-03-11T11:01:35Z</time>
      </trkpt>
      <trkpt lat="45.27524" lon="4.66104">
        <ele>495</ele>
        <time>2007-03-11T11:01:51Z</time>
      </trkpt>
      <trkpt lat="45.2753" lon="4.66125">
        <ele>498</ele>
        <time>2007-03-11T11:02:08Z</time>
      </trkpt>
      <trkpt lat="45.27532" lon="4.66127">
        <ele>498</ele>
        <time>2007-03-11T11:02:10Z</time>
      </trkpt>
      <trkpt lat="45.27539" lon="4.66149">
        <ele>502</ele>
        <time>2007-03-11T11:02:27Z</time>
      </trkpt>
      <trkpt lat="45.27541" lon="4.66153">
        <ele>503</ele>
        <time>2007-03-11T11:02:30Z</time>
      </trkpt>
      <trkpt lat="45.27543" lon="4.66161">
        <ele>503</ele>
        <time>2007-03-11T11:02:36Z</time>
      </trkpt>
      <trkpt lat="45.27545" lon="4.66185">
        <ele>506</ele>
        <time>2007-03-11T11:02:51Z</time>
      </trkpt>
      <trkpt lat="45.27545" lon="4.66189">
        <ele>506</ele>
        <time>2007-03-11T11:02:55Z</time>
      </trkpt>
      <trkpt lat="45.27547" lon="4.66174">
        <ele>504</ele>
        <time>2007-03-11T11:03:04Z</time>
      </trkpt>
      <trkpt lat="45.27545" lon="4.66174">
        <ele>504</ele>
        <time>2007-03-11T11:03:07Z</time>
      </trkpt>
      <trkpt lat="45.27545" lon="4.66196">
        <ele>506</ele>
        <time>2007-03-11T11:03:21Z</time>
      </trkpt>
      <trkpt lat="45.27543" lon="4.66213">
        <ele>508</ele>
        <time>2007-03-11T11:03:35Z</time>
      </trkpt>
      <trkpt lat="45.27543" lon="4.66232">
        <ele>511</ele>
        <time>2007-03-11T11:03:49Z</time>
      </trkpt>
      <trkpt lat="45.27547" lon="4.66247">
        <ele>511</ele>
        <time>2007-03-11T11:04:02Z</time>
      </trkpt>
      <trkpt lat="45.27552" lon="4.66262">
        <ele>514</ele>
        <time>2007-03-11T11:04:18Z</time>
      </trkpt>
      <trkpt lat="45.27556" lon="4.66273">
        <ele>516</ele>
        <time>2007-03-11T11:04:30Z</time>
      </trkpt>
      <trkpt lat="45.27556" lon="4.66273">
        <ele>517</ele>
        <time>2007-03-11T11:04:39Z</time>
      </trkpt>
      <trkpt lat="45.27558" lon="4.66282">
        <ele>517</ele>
        <time>2007-03-11T11:04:43Z</time>
      </trkpt>
      <trkpt lat="45.27565" lon="4.6631">
        <ele>521</ele>
        <time>2007-03-11T11:04:59Z</time>
      </trkpt>
      <trkpt lat="45.27567" lon="4.66333">
        <ele>523</ele>
        <time>2007-03-11T11:05:16Z</time>
      </trkpt>
      <trkpt lat="45.27569" lon="4.6635">
        <ele>525</ele>
        <time>2007-03-11T11:05:30Z</time>
      </trkpt>
      <trkpt lat="45.27569" lon="4.66363">
        <ele>525</ele>
        <time>2007-03-11T11:05:40Z</time>
      </trkpt>
      <trkpt lat="45.27562" lon="4.66391">
        <ele>526</ele>
        <time>2007-03-11T11:05:54Z</time>
      </trkpt>
      <trkpt lat="45.27556" lon="4.6643">
        <ele>526</ele>
        <time>2007-03-11T11:06:07Z</time>
      </trkpt>
      <trkpt lat="45.27552" lon="4.66462">
        <ele>528</ele>
        <time>2007-03-11T11:06:20Z</time>
      </trkpt>
      <trkpt lat="45.27552" lon="4.66468">
        <ele>528</ele>
        <time>2007-03-11T11:06:24Z</time>
      </trkpt>
      <trkpt lat="45.27554" lon="4.6649">
        <ele>531</ele>
        <time>2007-03-11T11:06:41Z</time>
      </trkpt>
      <trkpt lat="45.2756" lon="4.66507">
        <ele>533</ele>
        <time>2007-03-11T11:06:54Z</time>
      </trkpt>
      <trkpt lat="45.27571" lon="4.66524">
        <ele>536</ele>
        <time>2007-03-11T11:07:10Z</time>
      </trkpt>
      <trkpt lat="45.27582" lon="4.66537">
        <ele>539</ele>
        <time>2007-03-11T11:07:24Z</time>
      </trkpt>
      <trkpt lat="45.27597" lon="4.66552">
        <ele>541</ele>
        <time>2007-03-11T11:07:39Z</time>
      </trkpt>
      <trkpt lat="45.27601" lon="4.66554">
        <ele>541</ele>
        <time>2007-03-11T11:07:45Z</time>
      </trkpt>
      <trkpt lat="45.27612" lon="4.66571">
        <ele>541</ele>
        <time>2007-03-11T11:07:58Z</time>
      </trkpt>
      <trkpt lat="45.27627" lon="4.66601">
        <ele>541</ele>
        <time>2007-03-11T11:08:17Z</time>
      </trkpt>
      <trkpt lat="45.2764" lon="4.66621">
        <ele>542</ele>
        <time>2007-03-11T11:08:31Z</time>
      </trkpt>
      <trkpt lat="45.27655" lon="4.66638">
        <ele>543</ele>
        <time>2007-03-11T11:08:47Z</time>
      </trkpt>
      <trkpt lat="45.27668" lon="4.66657">
        <ele>546</ele>
        <time>2007-03-11T11:09:05Z</time>
      </trkpt>
      <trkpt lat="45.27672" lon="4.66661">
        <ele>546</ele>
        <time>2007-03-11T11:09:09Z</time>
      </trkpt>
      <trkpt lat="45.27674" lon="4.66668">
        <ele>546</ele>
        <time>2007-03-11T11:09:14Z</time>
      </trkpt>
      <trkpt lat="45.2768" lon="4.66674">
        <ele>547</ele>
        <time>2007-03-11T11:09:20Z</time>
      </trkpt>
      <trkpt lat="45.27695" lon="4.66685">
        <ele>549</ele>
        <time>2007-03-11T11:09:36Z</time>
      </trkpt>
      <trkpt lat="45.27713" lon="4.66698">
        <ele>549</ele>
        <time>2007-03-11T11:09:54Z</time>
      </trkpt>
      <trkpt lat="45.27723" lon="4.66704">
        <ele>550</ele>
        <time>2007-03-11T11:10:05Z</time>
      </trkpt>
      <trkpt lat="45.27732" lon="4.66704">
        <ele>551</ele>
        <time>2007-03-11T11:10:17Z</time>
      </trkpt>
      <trkpt lat="45.27732" lon="4.66702">
        <ele>551</ele>
        <time>2007-03-11T11:10:41Z</time>
      </trkpt>
      <trkpt lat="45.2773" lon="4.66711">
        <ele>554</ele>
        <time>2007-03-11T11:16:07Z</time>
      </trkpt>
      <trkpt lat="45.27736" lon="4.66713">
        <ele>554</ele>
        <time>2007-03-11T11:16:13Z</time>
      </trkpt>
      <trkpt lat="45.27743" lon="4.66713">
        <ele>555</ele>
        <time>2007-03-11T11:16:18Z</time>
      </trkpt>
      <trkpt lat="45.2776" lon="4.66717">
        <ele>556</ele>
        <time>2007-03-11T11:16:30Z</time>
      </trkpt>
      <trkpt lat="45.27775" lon="4.66722">
        <ele>558</ele>
        <time>2007-03-11T11:16:42Z</time>
      </trkpt>
      <trkpt lat="45.2779" lon="4.66722">
        <ele>559</ele>
        <time>2007-03-11T11:16:55Z</time>
      </trkpt>
      <trkpt lat="45.27811" lon="4.66724">
        <ele>561</ele>
        <time>2007-03-11T11:17:11Z</time>
      </trkpt>
      <trkpt lat="45.27824" lon="4.66724">
        <ele>562</ele>
        <time>2007-03-11T11:17:23Z</time>
      </trkpt>
      <trkpt lat="45.27843" lon="4.66724">
        <ele>562</ele>
        <time>2007-03-11T11:17:39Z</time>
      </trkpt>
      <trkpt lat="45.27852" lon="4.66726">
        <ele>562</ele>
        <time>2007-03-11T11:17:46Z</time>
      </trkpt>
      <trkpt lat="45.27854" lon="4.66726">
        <ele>562</ele>
        <time>2007-03-11T11:17:48Z</time>
      </trkpt>
      <trkpt lat="45.27861" lon="4.66724">
        <ele>564</ele>
        <time>2007-03-11T11:18:00Z</time>
      </trkpt>
      <trkpt lat="45.27869" lon="4.66724">
        <ele>571</ele>
        <time>2007-03-11T11:18:29Z</time>
      </trkpt>
      <trkpt lat="45.27878" lon="4.66722">
        <ele>572</ele>
        <time>2007-03-11T11:18:36Z</time>
      </trkpt>
      <trkpt lat="45.27897" lon="4.66722">
        <ele>573</ele>
        <time>2007-03-11T11:18:53Z</time>
      </trkpt>
      <trkpt lat="45.27912" lon="4.66717">
        <ele>576</ele>
        <time>2007-03-11T11:19:08Z</time>
      </trkpt>
      <trkpt lat="45.27925" lon="4.66717">
        <ele>578</ele>
        <time>2007-03-11T11:19:20Z</time>
      </trkpt>
      <trkpt lat="45.27927" lon="4.66715">
        <ele>578</ele>
        <time>2007-03-11T11:19:22Z</time>
      </trkpt>
      <trkpt lat="45.27934" lon="4.66713">
        <ele>579</ele>
        <time>2007-03-11T11:19:30Z</time>
      </trkpt>
      <trkpt lat="45.27946" lon="4.66711">
        <ele>580</ele>
        <time>2007-03-11T11:19:43Z</time>
      </trkpt>
      <trkpt lat="45.27949" lon="4.66713">
        <ele>580</ele>
        <time>2007-03-11T11:19:45Z</time>
      </trkpt>
      <trkpt lat="45.27966" lon="4.66713">
        <ele>581</ele>
        <time>2007-03-11T11:20:01Z</time>
      </trkpt>
      <trkpt lat="45.27981" lon="4.66713">
        <ele>584</ele>
        <time>2007-03-11T11:20:15Z</time>
      </trkpt>
      <trkpt lat="45.27985" lon="4.66713">
        <ele>584</ele>
        <time>2007-03-11T11:20:19Z</time>
      </trkpt>
      <trkpt lat="45.27998" lon="4.66702">
        <ele>587</ele>
        <time>2007-03-11T11:20:35Z</time>
      </trkpt>
      <trkpt lat="45.28015" lon="4.66702">
        <ele>588</ele>
        <time>2007-03-11T11:20:51Z</time>
      </trkpt>
      <trkpt lat="45.28034" lon="4.66707">
        <ele>588</ele>
        <time>2007-03-11T11:21:05Z</time>
      </trkpt>
      <trkpt lat="45.28052" lon="4.66711">
        <ele>588</ele>
        <time>2007-03-11T11:21:20Z</time>
      </trkpt>
      <trkpt lat="45.28071" lon="4.66715">
        <ele>590</ele>
        <time>2007-03-11T11:21:34Z</time>
      </trkpt>
      <trkpt lat="45.28092" lon="4.66719">
        <ele>591</ele>
        <time>2007-03-11T11:21:48Z</time>
      </trkpt>
      <trkpt lat="45.28116" lon="4.66719">
        <ele>593</ele>
        <time>2007-03-11T11:22:03Z</time>
      </trkpt>
      <trkpt lat="45.28142" lon="4.66698">
        <ele>593</ele>
        <time>2007-03-11T11:22:19Z</time>
      </trkpt>
      <trkpt lat="45.2815" lon="4.66683">
        <ele>593</ele>
        <time>2007-03-11T11:22:27Z</time>
      </trkpt>
      <trkpt lat="45.28152" lon="4.66676">
        <ele>593</ele>
        <time>2007-03-11T11:22:31Z</time>
      </trkpt>
      <trkpt lat="45.28165" lon="4.66642">
        <ele>595</ele>
        <time>2007-03-11T11:22:50Z</time>
      </trkpt>
      <trkpt lat="45.28189" lon="4.66631">
        <ele>596</ele>
        <time>2007-03-11T11:23:05Z</time>
      </trkpt>
      <trkpt lat="45.28221" lon="4.66629">
        <ele>596</ele>
        <time>2007-03-11T11:23:27Z</time>
      </trkpt>
      <trkpt lat="45.28245" lon="4.66627">
        <ele>599</ele>
        <time>2007-03-11T11:23:44Z</time>
      </trkpt>
      <trkpt lat="45.28268" lon="4.66616">
        <ele>601</ele>
        <time>2007-03-11T11:24:01Z</time>
      </trkpt>
      <trkpt lat="45.28294" lon="4.6661">
        <ele>601</ele>
        <time>2007-03-11T11:24:18Z</time>
      </trkpt>
      <trkpt lat="45.28318" lon="4.66606">
        <ele>603</ele>
        <time>2007-03-11T11:24:33Z</time>
      </trkpt>
      <trkpt lat="45.28331" lon="4.66593">
        <ele>605</ele>
        <time>2007-03-11T11:24:45Z</time>
      </trkpt>
      <trkpt lat="45.28335" lon="4.66589">
        <ele>605</ele>
        <time>2007-03-11T11:24:50Z</time>
      </trkpt>
      <trkpt lat="45.28348" lon="4.66591">
        <ele>606</ele>
        <time>2007-03-11T11:25:01Z</time>
      </trkpt>
      <trkpt lat="45.28361" lon="4.66601">
        <ele>606</ele>
        <time>2007-03-11T11:25:13Z</time>
      </trkpt>
      <trkpt lat="45.28384" lon="4.66619">
        <ele>607</ele>
        <time>2007-03-11T11:25:29Z</time>
      </trkpt>
      <trkpt lat="45.28408" lon="4.66627">
        <ele>609</ele>
        <time>2007-03-11T11:25:44Z</time>
      </trkpt>
      <trkpt lat="45.28425" lon="4.66634">
        <ele>611</ele>
        <time>2007-03-11T11:25:56Z</time>
      </trkpt>
      <trkpt lat="45.28438" lon="4.66636">
        <ele>613</ele>
        <time>2007-03-11T11:26:07Z</time>
      </trkpt>
      <trkpt lat="45.28442" lon="4.66634">
        <ele>615</ele>
        <time>2007-03-11T11:26:26Z</time>
      </trkpt>
      <trkpt lat="45.28457" lon="4.66629">
        <ele>614</ele>
        <time>2007-03-11T11:26:38Z</time>
      </trkpt>
      <trkpt lat="45.28483" lon="4.66616">
        <ele>614</ele>
        <time>2007-03-11T11:26:53Z</time>
      </trkpt>
      <trkpt lat="45.28507" lon="4.66599">
        <ele>615</ele>
        <time>2007-03-11T11:27:08Z</time>
      </trkpt>
      <trkpt lat="45.28513" lon="4.66595">
        <ele>615</ele>
        <time>2007-03-11T11:27:13Z</time>
      </trkpt>
      <trkpt lat="45.28519" lon="4.66591">
        <ele>615</ele>
        <time>2007-03-11T11:27:18Z</time>
      </trkpt>
      <trkpt lat="45.28545" lon="4.66576">
        <ele>616</ele>
        <time>2007-03-11T11:27:34Z</time>
      </trkpt>
      <trkpt lat="45.28575" lon="4.66561">
        <ele>617</ele>
        <time>2007-03-11T11:27:49Z</time>
      </trkpt>
      <trkpt lat="45.28605" lon="4.66539">
        <ele>617</ele>
        <time>2007-03-11T11:28:02Z</time>
      </trkpt>
      <trkpt lat="45.28635" lon="4.66511">
        <ele>617</ele>
        <time>2007-03-11T11:28:17Z</time>
      </trkpt>
      <trkpt lat="45.28665" lon="4.66481">
        <ele>617</ele>
        <time>2007-03-11T11:28:32Z</time>
      </trkpt>
      <trkpt lat="45.28691" lon="4.66458">
        <ele>614</ele>
        <time>2007-03-11T11:28:44Z</time>
      </trkpt>
      <trkpt lat="45.28725" lon="4.66449">
        <ele>613</ele>
        <time>2007-03-11T11:28:53Z</time>
      </trkpt>
      <trkpt lat="45.28803" lon="4.6646">
        <ele>610</ele>
        <time>2007-03-11T11:29:08Z</time>
      </trkpt>
      <trkpt lat="45.28886" lon="4.6649">
        <ele>604</ele>
        <time>2007-03-11T11:29:20Z</time>
      </trkpt>
      <trkpt lat="45.28972" lon="4.66528">
        <ele>602</ele>
        <time>2007-03-11T11:29:30Z</time>
      </trkpt>
      <trkpt lat="45.29004" lon="4.66567">
        <ele>599</ele>
        <time>2007-03-11T11:29:35Z</time>
      </trkpt>
      <trkpt lat="45.29049" lon="4.66606">
        <ele>593</ele>
        <time>2007-03-11T11:29:43Z</time>
      </trkpt>
      <trkpt lat="45.29067" lon="4.66646">
        <ele>590</ele>
        <time>2007-03-11T11:29:52Z</time>
      </trkpt>
      <trkpt lat="45.29079" lon="4.66672">
        <ele>589</ele>
        <time>2007-03-11T11:30:04Z</time>
      </trkpt>
      <trkpt lat="45.29079" lon="4.66674">
        <ele>586</ele>
        <time>2007-03-11T11:30:15Z</time>
      </trkpt>
      <trkpt lat="45.29084" lon="4.66689">
        <ele>587</ele>
        <time>2007-03-11T11:30:24Z</time>
      </trkpt>
      <trkpt lat="45.2909" lon="4.66717">
        <ele>588</ele>
        <time>2007-03-11T11:30:40Z</time>
      </trkpt>
      <trkpt lat="45.29099" lon="4.66741">
        <ele>589</ele>
        <time>2007-03-11T11:30:52Z</time>
      </trkpt>
      <trkpt lat="45.29107" lon="4.66779">
        <ele>588</ele>
        <time>2007-03-11T11:31:07Z</time>
      </trkpt>
      <trkpt lat="45.29122" lon="4.66818">
        <ele>588</ele>
        <time>2007-03-11T11:31:21Z</time>
      </trkpt>
      <trkpt lat="45.29137" lon="4.66846">
        <ele>591</ele>
        <time>2007-03-11T11:31:38Z</time>
      </trkpt>
      <trkpt lat="45.29159" lon="4.66885">
        <ele>590</ele>
        <time>2007-03-11T11:31:56Z</time>
      </trkpt>
      <trkpt lat="45.29182" lon="4.66928">
        <ele>589</ele>
        <time>2007-03-11T11:32:11Z</time>
      </trkpt>
      <trkpt lat="45.29202" lon="4.66932">
        <ele>589</ele>
        <time>2007-03-11T11:32:19Z</time>
      </trkpt>
      <trkpt lat="45.2923" lon="4.66934">
        <ele>590</ele>
        <time>2007-03-11T11:32:31Z</time>
      </trkpt>
      <trkpt lat="45.29253" lon="4.66945">
        <ele>592</ele>
        <time>2007-03-11T11:32:42Z</time>
      </trkpt>
      <trkpt lat="45.29275" lon="4.66968">
        <ele>594</ele>
        <time>2007-03-11T11:32:57Z</time>
      </trkpt>
      <trkpt lat="45.29292" lon="4.6699">
        <ele>596</ele>
        <time>2007-03-11T11:33:11Z</time>
      </trkpt>
      <trkpt lat="45.29309" lon="4.66992">
        <ele>595</ele>
        <time>2007-03-11T11:33:24Z</time>
      </trkpt>
      <trkpt lat="45.29324" lon="4.6696">
        <ele>592</ele>
        <time>2007-03-11T11:33:34Z</time>
      </trkpt>
      <trkpt lat="45.2933" lon="4.66915">
        <ele>593</ele>
        <time>2007-03-11T11:33:45Z</time>
      </trkpt>
      <trkpt lat="45.29339" lon="4.66872">
        <ele>593</ele>
        <time>2007-03-11T11:33:58Z</time>
      </trkpt>
      <trkpt lat="45.29346" lon="4.66874">
        <ele>594</ele>
        <time>2007-03-11T11:34:04Z</time>
      </trkpt>
      <trkpt lat="45.29352" lon="4.66878">
        <ele>595</ele>
        <time>2007-03-11T11:34:10Z</time>
      </trkpt>
      <trkpt lat="45.29346" lon="4.6687">
        <ele>595</ele>
        <time>2007-03-11T11:34:14Z</time>
      </trkpt>
      <trkpt lat="45.29341" lon="4.6687">
        <ele>593</ele>
        <time>2007-03-11T11:34:19Z</time>
      </trkpt>
      <trkpt lat="45.29341" lon="4.6687">
        <ele>593</ele>
        <time>2007-03-11T11:34:20Z</time>
      </trkpt>
      <trkpt lat="45.29339" lon="4.66872">
        <ele>593</ele>
        <time>2007-03-11T11:34:23Z</time>
      </trkpt>
      <trkpt lat="45.29339" lon="4.66872">
        <ele>593</ele>
        <time>2007-03-11T11:34:38Z</time>
      </trkpt>
      <trkpt lat="45.29339" lon="4.66874">
        <ele>592</ele>
        <time>2007-03-11T11:34:58Z</time>
      </trkpt>
      <trkpt lat="45.29346" lon="4.66874">
        <ele>592</ele>
        <time>2007-03-11T11:35:09Z</time>
      </trkpt>
      <trkpt lat="45.29354" lon="4.66887">
        <ele>594</ele>
        <time>2007-03-11T11:35:17Z</time>
      </trkpt>
      <trkpt lat="45.29371" lon="4.66913">
        <ele>597</ele>
        <time>2007-03-11T11:35:31Z</time>
      </trkpt>
      <trkpt lat="45.29376" lon="4.66919">
        <ele>598</ele>
        <time>2007-03-11T11:35:40Z</time>
      </trkpt>
      <trkpt lat="45.29386" lon="4.66934">
        <ele>598</ele>
        <time>2007-03-11T11:36:07Z</time>
      </trkpt>
      <trkpt lat="45.29388" lon="4.66938">
        <ele>598</ele>
        <time>2007-03-11T11:36:08Z</time>
      </trkpt>
      <trkpt lat="45.29427" lon="4.67003">
        <ele>601</ele>
        <time>2007-03-11T11:36:21Z</time>
      </trkpt>
      <trkpt lat="45.29429" lon="4.67011">
        <ele>601</ele>
        <time>2007-03-11T11:36:23Z</time>
      </trkpt>
      <trkpt lat="45.29429" lon="4.67016">
        <ele>604</ele>
        <time>2007-03-11T11:36:36Z</time>
      </trkpt>
      <trkpt lat="45.29423" lon="4.67033">
        <ele>605</ele>
        <time>2007-03-11T11:36:44Z</time>
      </trkpt>
      <trkpt lat="45.2941" lon="4.67063">
        <ele>607</ele>
        <time>2007-03-11T11:36:57Z</time>
      </trkpt>
      <trkpt lat="45.29393" lon="4.67082">
        <ele>610</ele>
        <time>2007-03-11T11:37:13Z</time>
      </trkpt>
      <trkpt lat="45.29378" lon="4.67095">
        <ele>612</ele>
        <time>2007-03-11T11:37:27Z</time>
      </trkpt>
      <trkpt lat="45.29361" lon="4.67097">
        <ele>614</ele>
        <time>2007-03-11T11:37:41Z</time>
      </trkpt>
      <trkpt lat="45.29341" lon="4.67106">
        <ele>615</ele>
        <time>2007-03-11T11:37:57Z</time>
      </trkpt>
      <trkpt lat="45.29324" lon="4.67121">
        <ele>616</ele>
        <time>2007-03-11T11:38:12Z</time>
      </trkpt>
      <trkpt lat="45.2932" lon="4.67125">
        <ele>617</ele>
        <time>2007-03-11T11:38:16Z</time>
      </trkpt>
      <trkpt lat="45.29315" lon="4.67144">
        <ele>619</ele>
        <time>2007-03-11T11:38:30Z</time>
      </trkpt>
      <trkpt lat="45.29318" lon="4.6717">
        <ele>623</ele>
        <time>2007-03-11T11:38:45Z</time>
      </trkpt>
      <trkpt lat="45.29318" lon="4.67191">
        <ele>625</ele>
        <time>2007-03-11T11:38:58Z</time>
      </trkpt>
      <trkpt lat="45.29322" lon="4.67219">
        <ele>627</ele>
        <time>2007-03-11T11:39:15Z</time>
      </trkpt>
      <trkpt lat="45.29328" lon="4.67232">
        <ele>628</ele>
        <time>2007-03-11T11:39:28Z</time>
      </trkpt>
      <trkpt lat="45.29333" lon="4.67247">
        <ele>629</ele>
        <time>2007-03-11T11:39:48Z</time>
      </trkpt>
      <trkpt lat="45.29337" lon="4.67277">
        <ele>631</ele>
        <time>2007-03-11T11:40:04Z</time>
      </trkpt>
      <trkpt lat="45.29335" lon="4.67286">
        <ele>632</ele>
        <time>2007-03-11T11:40:14Z</time>
      </trkpt>
      <trkpt lat="45.29337" lon="4.67286">
        <ele>632</ele>
        <time>2007-03-11T11:40:28Z</time>
      </trkpt>
      <trkpt lat="45.29337" lon="4.6729">
        <ele>632</ele>
        <time>2007-03-11T11:40:31Z</time>
      </trkpt>
      <trkpt lat="45.29337" lon="4.67299">
        <ele>632</ele>
        <time>2007-03-11T11:40:37Z</time>
      </trkpt>
      <trkpt lat="45.29339" lon="4.6732">
        <ele>633</ele>
        <time>2007-03-11T11:40:50Z</time>
      </trkpt>
      <trkpt lat="45.29343" lon="4.67337">
        <ele>634</ele>
        <time>2007-03-11T11:41:03Z</time>
      </trkpt>
      <trkpt lat="45.29352" lon="4.67367">
        <ele>635</ele>
        <time>2007-03-11T11:41:22Z</time>
      </trkpt>
      <trkpt lat="45.29361" lon="4.674">
        <ele>636</ele>
        <time>2007-03-11T11:41:35Z</time>
      </trkpt>
      <trkpt lat="45.29369" lon="4.6744">
        <ele>634</ele>
        <time>2007-03-11T11:41:47Z</time>
      </trkpt>
      <trkpt lat="45.29382" lon="4.67479">
        <ele>634</ele>
        <time>2007-03-11T11:41:57Z</time>
      </trkpt>
      <trkpt lat="45.29401" lon="4.67528">
        <ele>632</ele>
        <time>2007-03-11T11:42:10Z</time>
      </trkpt>
      <trkpt lat="45.2941" lon="4.67561">
        <ele>631</ele>
        <time>2007-03-11T11:42:16Z</time>
      </trkpt>
      <trkpt lat="45.2941" lon="4.67584">
        <ele>630</ele>
        <time>2007-03-11T11:42:19Z</time>
      </trkpt>
      <trkpt lat="45.29414" lon="4.67623">
        <ele>627</ele>
        <time>2007-03-11T11:42:23Z</time>
      </trkpt>
      <trkpt lat="45.29416" lon="4.67659">
        <ele>625</ele>
        <time>2007-03-11T11:42:28Z</time>
      </trkpt>
      <trkpt lat="45.29423" lon="4.67698">
        <ele>623</ele>
        <time>2007-03-11T11:42:32Z</time>
      </trkpt>
      <trkpt lat="45.29444" lon="4.67754">
        <ele>618</ele>
        <time>2007-03-11T11:42:40Z</time>
      </trkpt>
      <trkpt lat="45.29476" lon="4.67775">
        <ele>610</ele>
        <time>2007-03-11T11:42:46Z</time>
      </trkpt>
      <trkpt lat="45.29511" lon="4.67782">
        <ele>606</ele>
        <time>2007-03-11T11:42:51Z</time>
      </trkpt>
      <trkpt lat="45.29534" lon="4.67803">
        <ele>605</ele>
        <time>2007-03-11T11:42:58Z</time>
      </trkpt>
      <trkpt lat="45.2956" lon="4.67801">
        <ele>600</ele>
        <time>2007-03-11T11:43:10Z</time>
      </trkpt>
      <trkpt lat="45.29564" lon="4.67801">
        <ele>599</ele>
        <time>2007-03-11T11:43:13Z</time>
      </trkpt>
      <trkpt lat="45.29569" lon="4.67812">
        <ele>598</ele>
        <time>2007-03-11T11:43:18Z</time>
      </trkpt>
      <trkpt lat="45.29579" lon="4.67855">
        <ele>597</ele>
        <time>2007-03-11T11:43:27Z</time>
      </trkpt>
      <trkpt lat="45.29603" lon="4.679">
        <ele>594</ele>
        <time>2007-03-11T11:43:37Z</time>
      </trkpt>
      <trkpt lat="45.29614" lon="4.67949">
        <ele>593</ele>
        <time>2007-03-11T11:43:46Z</time>
      </trkpt>
      <trkpt lat="45.29644" lon="4.68007">
        <ele>590</ele>
        <time>2007-03-11T11:44:01Z</time>
      </trkpt>
      <trkpt lat="45.29648" lon="4.68013">
        <ele>589</ele>
        <time>2007-03-11T11:44:03Z</time>
      </trkpt>
      <trkpt lat="45.29655" lon="4.68024">
        <ele>588</ele>
        <time>2007-03-11T11:44:05Z</time>
      </trkpt>
      <trkpt lat="45.29702" lon="4.68069">
        <ele>586</ele>
        <time>2007-03-11T11:44:15Z</time>
      </trkpt>
      <trkpt lat="45.29715" lon="4.68091">
        <ele>585</ele>
        <time>2007-03-11T11:44:18Z</time>
      </trkpt>
      <trkpt lat="45.2973" lon="4.68127">
        <ele>581</ele>
        <time>2007-03-11T11:44:22Z</time>
      </trkpt>
      <trkpt lat="45.29742" lon="4.68174">
        <ele>578</ele>
        <time>2007-03-11T11:44:27Z</time>
      </trkpt>
      <trkpt lat="45.29742" lon="4.68209">
        <ele>575</ele>
        <time>2007-03-11T11:44:31Z</time>
      </trkpt>
      <trkpt lat="45.29736" lon="4.68241">
        <ele>570</ele>
        <time>2007-03-11T11:44:36Z</time>
      </trkpt>
      <trkpt lat="45.29736" lon="4.68243">
        <ele>570</ele>
        <time>2007-03-11T11:44:40Z</time>
      </trkpt>
      <trkpt lat="45.2974" lon="4.68247">
        <ele>570</ele>
        <time>2007-03-11T11:44:44Z</time>
      </trkpt>
      <trkpt lat="45.29766" lon="4.6826">
        <ele>569</ele>
        <time>2007-03-11T11:44:57Z</time>
      </trkpt>
      <trkpt lat="45.29805" lon="4.68279">
        <ele>570</ele>
        <time>2007-03-11T11:45:15Z</time>
      </trkpt>
      <trkpt lat="45.2983" lon="4.68292">
        <ele>570</ele>
        <time>2007-03-11T11:45:29Z</time>
      </trkpt>
      <trkpt lat="45.29845" lon="4.68318">
        <ele>568</ele>
        <time>2007-03-11T11:45:35Z</time>
      </trkpt>
      <trkpt lat="45.29893" lon="4.68367">
        <ele>568</ele>
        <time>2007-03-11T11:45:51Z</time>
      </trkpt>
      <trkpt lat="45.29914" lon="4.68395">
        <ele>568</ele>
        <time>2007-03-11T11:46:03Z</time>
      </trkpt>
      <trkpt lat="45.29948" lon="4.68432">
        <ele>567</ele>
        <time>2007-03-11T11:46:16Z</time>
      </trkpt>
      <trkpt lat="45.29981" lon="4.68455">
        <ele>567</ele>
        <time>2007-03-11T11:46:29Z</time>
      </trkpt>
      <trkpt lat="45.30019" lon="4.6847">
        <ele>567</ele>
        <time>2007-03-11T11:46:44Z</time>
      </trkpt>
      <trkpt lat="45.30054" lon="4.68475">
        <ele>568</ele>
        <time>2007-03-11T11:46:58Z</time>
      </trkpt>
      <trkpt lat="45.30077" lon="4.68483">
        <ele>570</ele>
        <time>2007-03-11T11:47:11Z</time>
      </trkpt>
      <trkpt lat="45.30103" lon="4.68494">
        <ele>572</ele>
        <time>2007-03-11T11:47:26Z</time>
      </trkpt>
      <trkpt lat="45.30131" lon="4.68511">
        <ele>573</ele>
        <time>2007-03-11T11:47:43Z</time>
      </trkpt>
      <trkpt lat="45.3015" lon="4.6852">
        <ele>572</ele>
        <time>2007-03-11T11:47:55Z</time>
      </trkpt>
      <trkpt lat="45.30176" lon="4.68524">
        <ele>571</ele>
        <time>2007-03-11T11:48:09Z</time>
      </trkpt>
      <trkpt lat="45.30215" lon="4.68535">
        <ele>571</ele>
        <time>2007-03-11T11:48:26Z</time>
      </trkpt>
      <trkpt lat="45.30247" lon="4.68548">
        <ele>572</ele>
        <time>2007-03-11T11:48:41Z</time>
      </trkpt>
      <trkpt lat="45.30277" lon="4.68554">
        <ele>572</ele>
        <time>2007-03-11T11:48:57Z</time>
      </trkpt>
      <trkpt lat="45.30305" lon="4.68554">
        <ele>571</ele>
        <time>2007-03-11T11:49:08Z</time>
      </trkpt>
      <trkpt lat="45.30337" lon="4.68556">
        <ele>571</ele>
        <time>2007-03-11T11:49:22Z</time>
      </trkpt>
      <trkpt lat="45.30365" lon="4.68558">
        <ele>573</ele>
        <time>2007-03-11T11:49:37Z</time>
      </trkpt>
      <trkpt lat="45.30388" lon="4.68565">
        <ele>571</ele>
        <time>2007-03-11T11:49:51Z</time>
      </trkpt>
      <trkpt lat="45.30414" lon="4.68582">
        <ele>574</ele>
        <time>2007-03-11T11:50:08Z</time>
      </trkpt>
      <trkpt lat="45.30431" lon="4.68595">
        <ele>575</ele>
        <time>2007-03-11T11:50:20Z</time>
      </trkpt>
      <trkpt lat="45.30446" lon="4.68608">
        <ele>578</ele>
        <time>2007-03-11T11:50:34Z</time>
      </trkpt>
      <trkpt lat="45.30448" lon="4.6861">
        <ele>579</ele>
        <time>2007-03-11T11:50:37Z</time>
      </trkpt>
      <trkpt lat="45.30468" lon="4.68603">
        <ele>582</ele>
        <time>2007-03-11T11:50:54Z</time>
      </trkpt>
      <trkpt lat="45.30483" lon="4.68588">
        <ele>586</ele>
        <time>2007-03-11T11:51:08Z</time>
      </trkpt>
      <trkpt lat="45.30496" lon="4.68575">
        <ele>588</ele>
        <time>2007-03-11T11:51:21Z</time>
      </trkpt>
      <trkpt lat="45.30511" lon="4.68563">
        <ele>592</ele>
        <time>2007-03-11T11:51:34Z</time>
      </trkpt>
      <trkpt lat="45.30517" lon="4.68563">
        <ele>594</ele>
        <time>2007-03-11T11:51:45Z</time>
      </trkpt>
      <trkpt lat="45.30517" lon="4.6856">
        <ele>593</ele>
        <time>2007-03-11T11:51:52Z</time>
      </trkpt>
      <trkpt lat="45.30504" lon="4.68567">
        <ele>590</ele>
        <time>2007-03-11T11:52:01Z</time>
      </trkpt>
      <trkpt lat="45.30504" lon="4.68569">
        <ele>589</ele>
        <time>2007-03-11T11:52:10Z</time>
      </trkpt>
      <trkpt lat="45.30506" lon="4.68567">
        <ele>590</ele>
        <time>2007-03-11T11:52:13Z</time>
      </trkpt>
      <trkpt lat="45.30515" lon="4.68565">
        <ele>592</ele>
        <time>2007-03-11T11:52:27Z</time>
      </trkpt>
      <trkpt lat="45.30524" lon="4.68563">
        <ele>594</ele>
        <time>2007-03-11T11:52:38Z</time>
      </trkpt>
      <trkpt lat="45.30539" lon="4.68567">
        <ele>595</ele>
        <time>2007-03-11T11:52:51Z</time>
      </trkpt>
      <trkpt lat="45.30547" lon="4.68569">
        <ele>596</ele>
        <time>2007-03-11T11:53:00Z</time>
      </trkpt>
      <trkpt lat="45.30558" lon="4.68573">
        <ele>598</ele>
        <time>2007-03-11T11:53:11Z</time>
      </trkpt>
      <trkpt lat="45.30562" lon="4.68573">
        <ele>599</ele>
        <time>2007-03-11T11:53:22Z</time>
      </trkpt>
      <trkpt lat="45.30564" lon="4.68575">
        <ele>599</ele>
        <time>2007-03-11T11:53:25Z</time>
      </trkpt>
      <trkpt lat="45.30577" lon="4.6858">
        <ele>601</ele>
        <time>2007-03-11T11:53:40Z</time>
      </trkpt>
      <trkpt lat="45.30588" lon="4.68584">
        <ele>603</ele>
        <time>2007-03-11T11:53:53Z</time>
      </trkpt>
      <trkpt lat="45.30609" lon="4.68591">
        <ele>607</ele>
        <time>2007-03-11T11:54:07Z</time>
      </trkpt>
      <trkpt lat="45.3062" lon="4.68591">
        <ele>608</ele>
        <time>2007-03-11T11:54:15Z</time>
      </trkpt>
      <trkpt lat="45.30622" lon="4.68586">
        <ele>608</ele>
        <time>2007-03-11T11:54:20Z</time>
      </trkpt>
      <trkpt lat="45.30624" lon="4.68586">
        <ele>609</ele>
        <time>2007-03-11T11:54:34Z</time>
      </trkpt>
      <trkpt lat="45.30624" lon="4.68586">
        <ele>609</ele>
        <time>2007-03-11T11:55:02Z</time>
      </trkpt>
      <trkpt lat="45.30624" lon="4.68586">
        <ele>609</ele>
        <time>2007-03-11T11:55:12Z</time>
      </trkpt>
      <trkpt lat="45.30642" lon="4.68588">
        <ele>610</ele>
        <time>2007-03-11T11:55:24Z</time>
      </trkpt>
      <trkpt lat="45.30659" lon="4.68591">
        <ele>610</ele>
        <time>2007-03-11T11:55:34Z</time>
      </trkpt>
      <trkpt lat="45.3068" lon="4.68593">
        <ele>611</ele>
        <time>2007-03-11T11:55:48Z</time>
      </trkpt>
      <trkpt lat="45.30687" lon="4.68595">
        <ele>612</ele>
        <time>2007-03-11T11:55:52Z</time>
      </trkpt>
      <trkpt lat="45.3071" lon="4.68597">
        <ele>612</ele>
        <time>2007-03-11T11:56:08Z</time>
      </trkpt>
      <trkpt lat="45.30734" lon="4.68601">
        <ele>612</ele>
        <time>2007-03-11T11:56:22Z</time>
      </trkpt>
      <trkpt lat="45.3077" lon="4.68603">
        <ele>613</ele>
        <time>2007-03-11T11:56:38Z</time>
      </trkpt>
      <trkpt lat="45.30798" lon="4.68595">
        <ele>613</ele>
        <time>2007-03-11T11:56:50Z</time>
      </trkpt>
      <trkpt lat="45.308" lon="4.68593">
        <ele>613</ele>
        <time>2007-03-11T11:56:51Z</time>
      </trkpt>
      <trkpt lat="45.30802" lon="4.68584">
        <ele>613</ele>
        <time>2007-03-11T11:56:55Z</time>
      </trkpt>
      <trkpt lat="45.30807" lon="4.6858">
        <ele>613</ele>
        <time>2007-03-11T11:56:59Z</time>
      </trkpt>
      <trkpt lat="45.30809" lon="4.68578">
        <ele>618</ele>
        <time>2007-03-11T11:57:14Z</time>
      </trkpt>
    </trkseg>
  </trk>
</gpx>